<?xml version='1.0' encoding='UTF-8'?><gpx version="1.1" creator="JPX - https://github.com/jenetics/jpx" xmlns="http://www.topografix.com/GPX/1/1"><trk><trkseg><trkpt lat="43.7779837" lon="11.2001395"><ele>40.0</ele><time>2026-04-10T16:42:16.186Z</time></trkpt><trkpt lat="43.7780508" lon="11.2001575"><ele>40.0</ele><time>2026-04-10T16:43:15.919Z</time></trkpt><trkpt lat="43.7780738" lon="11.200246"><ele>40.0</ele><time>2026-04-10T16:43:18.919Z</time></trkpt><trkpt lat="43.7781367" lon="11.2002957"><ele>40.0</ele><time>2026-04-10T16:43:22.919Z</time></trkpt><trkpt lat="43.7781909" lon="11.2003671"><ele>40.0</ele><time>2026-04-10T16:43:24.919Z</time></trkpt><trkpt lat="43.7782246" lon="11.2004554"><ele>40.0</ele><time>2026-04-10T16:43:26.92Z</time></trkpt><trkpt lat="43.7782507" lon="11.2005395"><ele>40.0</ele><time>2026-04-10T16:43:29.919Z</time></trkpt><trkpt lat="43.778265" lon="11.2006333"><ele>40.0</ele><time>2026-04-10T16:44:08.919Z</time></trkpt><trkpt lat="43.778305" lon="11.200705"><ele>40.0</ele><time>2026-04-10T16:44:11.92Z</time></trkpt><trkpt lat="43.7783917" lon="11.2007"><ele>40.0</ele><time>2026-04-10T16:44:16.919Z</time></trkpt><trkpt lat="43.7784667" lon="11.200715"><ele>40.0</ele><time>2026-04-10T16:44:19.919Z</time></trkpt><trkpt lat="43.77852" lon="11.2006533"><ele>40.0</ele><time>2026-04-10T16:44:23.92Z</time></trkpt><trkpt lat="43.778585" lon="11.2006617"><ele>40.0</ele><time>2026-04-10T16:44:25.92Z</time></trkpt><trkpt lat="43.778675" lon="11.2007167"><ele>40.0</ele><time>2026-04-10T16:44:27.919Z</time></trkpt><trkpt lat="43.7787467" lon="11.2007917"><ele>40.0</ele><time>2026-04-10T16:44:29.919Z</time></trkpt><trkpt lat="43.7788083" lon="11.2008667"><ele>40.0</ele><time>2026-04-10T16:44:31.92Z</time></trkpt><trkpt lat="43.7788633" lon="11.2009383"><ele>40.0</ele><time>2026-04-10T16:44:33.919Z</time></trkpt><trkpt lat="43.7789417" lon="11.2010017"><ele>40.0</ele><time>2026-04-10T16:44:36.919Z</time></trkpt><trkpt lat="43.7789983" lon="11.2010467"><ele>40.0</ele><time>2026-04-10T16:44:38.92Z</time></trkpt><trkpt lat="43.7790883" lon="11.2010667"><ele>40.0</ele><time>2026-04-10T16:44:41.919Z</time></trkpt><trkpt lat="43.779165" lon="11.2010667"><ele>40.0</ele><time>2026-04-10T16:44:44.919Z</time></trkpt><trkpt lat="43.7792317" lon="11.201095"><ele>40.0</ele><time>2026-04-10T16:44:47.919Z</time></trkpt><trkpt lat="43.7793117" lon="11.2011367"><ele>40.0</ele><time>2026-04-10T16:44:49.919Z</time></trkpt><trkpt lat="43.7793967" lon="11.2012"><ele>40.0</ele><time>2026-04-10T16:44:51.919Z</time></trkpt><trkpt lat="43.77947" lon="11.2012567"><ele>40.0</ele><time>2026-04-10T16:44:53.919Z</time></trkpt><trkpt lat="43.7795483" lon="11.2013183"><ele>40.14285714285714</ele><time>2026-04-10T16:44:56.92Z</time></trkpt><trkpt lat="43.77961" lon="11.2013633"><ele>40.285714285714285</ele><time>2026-04-10T16:44:58.919Z</time></trkpt><trkpt lat="43.7796667" lon="11.2014067"><ele>40.42857142857143</ele><time>2026-04-10T16:45:00.919Z</time></trkpt><trkpt lat="43.7797317" lon="11.20144"><ele>40.57142857142857</ele><time>2026-04-10T16:45:02.919Z</time></trkpt><trkpt lat="43.7798117" lon="11.2014817"><ele>40.714285714285715</ele><time>2026-04-10T16:45:05.92Z</time></trkpt><trkpt lat="43.7798733" lon="11.2015183"><ele>40.857142857142854</ele><time>2026-04-10T16:45:07.919Z</time></trkpt><trkpt lat="43.779935" lon="11.2015533"><ele>41.0</ele><time>2026-04-10T16:45:09.919Z</time></trkpt><trkpt lat="43.7800067" lon="11.2015733"><ele>40.99999999999999</ele><time>2026-04-10T16:45:13.919Z</time></trkpt><trkpt lat="43.7800617" lon="11.2015283"><ele>41.0</ele><time>2026-04-10T16:45:17.919Z</time></trkpt><trkpt lat="43.7801233" lon="11.2015017"><ele>41.0</ele><time>2026-04-10T16:45:23.919Z</time></trkpt><trkpt lat="43.7801683" lon="11.2015683"><ele>41.0</ele><time>2026-04-10T16:45:26.919Z</time></trkpt><trkpt lat="43.7802033" lon="11.2016417"><ele>41.0</ele><time>2026-04-10T16:45:28.92Z</time></trkpt><trkpt lat="43.7802533" lon="11.201705"><ele>40.99999999999999</ele><time>2026-04-10T16:45:30.919Z</time></trkpt><trkpt lat="43.780325" lon="11.20177"><ele>41.0</ele><time>2026-04-10T16:45:32.919Z</time></trkpt><trkpt lat="43.7803933" lon="11.2018133"><ele>40.666666666666664</ele><time>2026-04-10T16:45:34.92Z</time></trkpt><trkpt lat="43.7804633" lon="11.2018567"><ele>40.33333333333333</ele><time>2026-04-10T16:45:37.919Z</time></trkpt><trkpt lat="43.7805217" lon="11.2018917"><ele>40.0</ele><time>2026-04-10T16:45:39.919Z</time></trkpt><trkpt lat="43.78061" lon="11.2019417"><ele>39.666666666666664</ele><time>2026-04-10T16:45:41.919Z</time></trkpt><trkpt lat="43.7806767" lon="11.2019817"><ele>39.333333333333336</ele><time>2026-04-10T16:45:43.919Z</time></trkpt><trkpt lat="43.7807617" lon="11.2020333"><ele>39.0</ele><time>2026-04-10T16:45:46.92Z</time></trkpt><trkpt lat="43.7808333" lon="11.202075"><ele>39.0</ele><time>2026-04-10T16:45:48.919Z</time></trkpt><trkpt lat="43.7809067" lon="11.2021183"><ele>39.0</ele><time>2026-04-10T16:45:50.92Z</time></trkpt><trkpt lat="43.7809933" lon="11.20217"><ele>39.0</ele><time>2026-04-10T16:45:53.919Z</time></trkpt><trkpt lat="43.78105" lon="11.2022167"><ele>39.0</ele><time>2026-04-10T16:45:56.919Z</time></trkpt><trkpt lat="43.7811067" lon="11.2022683"><ele>39.0</ele><time>2026-04-10T16:45:59.919Z</time></trkpt><trkpt lat="43.78117" lon="11.2023033"><ele>39.0</ele><time>2026-04-10T16:46:02.919Z</time></trkpt><trkpt lat="43.781245" lon="11.2023567"><ele>39.0</ele><time>2026-04-10T16:46:04.92Z</time></trkpt><trkpt lat="43.7813117" lon="11.2023817"><ele>39.0</ele><time>2026-04-10T16:46:06.919Z</time></trkpt><trkpt lat="43.7813933" lon="11.2024233"><ele>39.0</ele><time>2026-04-10T16:46:08.919Z</time></trkpt><trkpt lat="43.7814867" lon="11.2024467"><ele>39.0</ele><time>2026-04-10T16:46:10.919Z</time></trkpt><trkpt lat="43.7815733" lon="11.2024667"><ele>39.0</ele><time>2026-04-10T16:46:12.919Z</time></trkpt><trkpt lat="43.7816533" lon="11.2024617"><ele>39.0</ele><time>2026-04-10T16:46:14.919Z</time></trkpt><trkpt lat="43.7817333" lon="11.20251"><ele>39.0</ele><time>2026-04-10T16:46:17.919Z</time></trkpt><trkpt lat="43.781805" lon="11.20257"><ele>39.0</ele><time>2026-04-10T16:46:19.919Z</time></trkpt><trkpt lat="43.7818783" lon="11.2026333"><ele>39.0</ele><time>2026-04-10T16:46:21.919Z</time></trkpt><trkpt lat="43.781955" lon="11.2026883"><ele>39.0</ele><time>2026-04-10T16:46:23.919Z</time></trkpt><trkpt lat="43.7820283" lon="11.20274"><ele>39.0</ele><time>2026-04-10T16:46:25.919Z</time></trkpt><trkpt lat="43.7820983" lon="11.2027783"><ele>39.0</ele><time>2026-04-10T16:46:27.919Z</time></trkpt><trkpt lat="43.78216" lon="11.2028317"><ele>38.833333333333336</ele><time>2026-04-10T16:46:29.919Z</time></trkpt><trkpt lat="43.7822067" lon="11.2029383"><ele>38.666666666666664</ele><time>2026-04-10T16:46:32.919Z</time></trkpt><trkpt lat="43.782205" lon="11.2030633"><ele>38.5</ele><time>2026-04-10T16:46:36.92Z</time></trkpt><trkpt lat="43.7821867" lon="11.203155"><ele>38.33333333333333</ele><time>2026-04-10T16:46:38.919Z</time></trkpt><trkpt lat="43.7821683" lon="11.2032467"><ele>38.166666666666664</ele><time>2026-04-10T16:46:40.919Z</time></trkpt><trkpt lat="43.782155" lon="11.203345"><ele>38.0</ele><time>2026-04-10T16:46:42.919Z</time></trkpt><trkpt lat="43.78214" lon="11.2034533"><ele>38.0</ele><time>2026-04-10T16:46:44.92Z</time></trkpt><trkpt lat="43.7821267" lon="11.2035483"><ele>38.0</ele><time>2026-04-10T16:46:46.919Z</time></trkpt><trkpt lat="43.7821183" lon="11.2036567"><ele>38.0</ele><time>2026-04-10T16:46:49.919Z</time></trkpt><trkpt lat="43.78213" lon="11.20375"><ele>38.0</ele><time>2026-04-10T16:46:53.919Z</time></trkpt><trkpt lat="43.782105" lon="11.20388"><ele>38.0</ele><time>2026-04-10T16:46:56.919Z</time></trkpt><trkpt lat="43.7820867" lon="11.203985"><ele>38.0</ele><time>2026-04-10T16:46:58.92Z</time></trkpt><trkpt lat="43.7820717" lon="11.2040933"><ele>38.14285714285714</ele><time>2026-04-10T16:47:00.92Z</time></trkpt><trkpt lat="43.782065" lon="11.2041867"><ele>38.28571428571429</ele><time>2026-04-10T16:47:02.919Z</time></trkpt><trkpt lat="43.7820667" lon="11.2042783"><ele>38.42857142857143</ele><time>2026-04-10T16:47:05.919Z</time></trkpt><trkpt lat="43.7820667" lon="11.20439"><ele>38.57142857142857</ele><time>2026-04-10T16:47:08.919Z</time></trkpt><trkpt lat="43.782065" lon="11.2044867"><ele>38.71428571428571</ele><time>2026-04-10T16:47:10.92Z</time></trkpt><trkpt lat="43.7820633" lon="11.2045917"><ele>38.85714285714286</ele><time>2026-04-10T16:47:12.919Z</time></trkpt><trkpt lat="43.782055" lon="11.2046967"><ele>39.0</ele><time>2026-04-10T16:47:14.919Z</time></trkpt><trkpt lat="43.782045" lon="11.2047833"><ele>39.0</ele><time>2026-04-10T16:47:16.919Z</time></trkpt><trkpt lat="43.78208" lon="11.2048683"><ele>39.0</ele><time>2026-04-10T16:47:19.919Z</time></trkpt><trkpt lat="43.7820933" lon="11.2047617"><ele>39.0</ele><time>2026-04-10T16:47:22.92Z</time></trkpt><trkpt lat="43.7821117" lon="11.2046467"><ele>39.0</ele><time>2026-04-10T16:47:24.92Z</time></trkpt><trkpt lat="43.782125" lon="11.20451"><ele>39.0</ele><time>2026-04-10T16:47:26.92Z</time></trkpt><trkpt lat="43.7821467" lon="11.2043683"><ele>39.0</ele><time>2026-04-10T16:47:28.92Z</time></trkpt><trkpt lat="43.782165" lon="11.2042367"><ele>39.0</ele><time>2026-04-10T16:47:30.919Z</time></trkpt><trkpt lat="43.7821783" lon="11.20411"><ele>39.0</ele><time>2026-04-10T16:47:32.919Z</time></trkpt><trkpt lat="43.78221" lon="11.2040033"><ele>39.0</ele><time>2026-04-10T16:47:34.919Z</time></trkpt><trkpt lat="43.7822733" lon="11.2039283"><ele>39.0</ele><time>2026-04-10T16:47:36.919Z</time></trkpt><trkpt lat="43.7823517" lon="11.2039217"><ele>39.0</ele><time>2026-04-10T16:47:38.919Z</time></trkpt><trkpt lat="43.7824267" lon="11.2039517"><ele>39.0</ele><time>2026-04-10T16:47:40.92Z</time></trkpt><trkpt lat="43.7825017" lon="11.2039817"><ele>39.0</ele><time>2026-04-10T16:47:42.919Z</time></trkpt><trkpt lat="43.7825683" lon="11.204005"><ele>39.0</ele><time>2026-04-10T16:47:44.92Z</time></trkpt><trkpt lat="43.7826317" lon="11.20402"><ele>39.0</ele><time>2026-04-10T16:47:46.919Z</time></trkpt><trkpt lat="43.7826967" lon="11.204035"><ele>39.0</ele><time>2026-04-10T16:47:48.919Z</time></trkpt><trkpt lat="43.7827633" lon="11.2040517"><ele>39.0</ele><time>2026-04-10T16:47:50.92Z</time></trkpt><trkpt lat="43.7828417" lon="11.204065"><ele>39.0</ele><time>2026-04-10T16:47:53.92Z</time></trkpt><trkpt lat="43.7829267" lon="11.2040917"><ele>39.0</ele><time>2026-04-10T16:47:55.92Z</time></trkpt><trkpt lat="43.7830133" lon="11.20411"><ele>39.166666666666664</ele><time>2026-04-10T16:47:58.92Z</time></trkpt><trkpt lat="43.7830767" lon="11.2041233"><ele>39.333333333333336</ele><time>2026-04-10T16:48:00.92Z</time></trkpt><trkpt lat="43.7831633" lon="11.2041833"><ele>39.5</ele><time>2026-04-10T16:48:03.92Z</time></trkpt><trkpt lat="43.78324" lon="11.2042233"><ele>39.66666666666667</ele><time>2026-04-10T16:48:05.919Z</time></trkpt><trkpt lat="43.78332" lon="11.2042633"><ele>39.833333333333336</ele><time>2026-04-10T16:48:07.919Z</time></trkpt><trkpt lat="43.7834067" lon="11.2043067"><ele>40.0</ele><time>2026-04-10T16:48:09.919Z</time></trkpt><trkpt lat="43.78349" lon="11.2043433"><ele>40.0</ele><time>2026-04-10T16:48:11.919Z</time></trkpt><trkpt lat="43.7835733" lon="11.204365"><ele>40.0</ele><time>2026-04-10T16:48:13.92Z</time></trkpt><trkpt lat="43.7836467" lon="11.2043817"><ele>40.0</ele><time>2026-04-10T16:48:15.92Z</time></trkpt><trkpt lat="43.7837217" lon="11.2044033"><ele>40.0</ele><time>2026-04-10T16:48:17.919Z</time></trkpt><trkpt lat="43.7838033" lon="11.204455"><ele>40.0</ele><time>2026-04-10T16:48:19.919Z</time></trkpt><trkpt lat="43.7838683" lon="11.2044767"><ele>40.0</ele><time>2026-04-10T16:48:21.92Z</time></trkpt><trkpt lat="43.7839633" lon="11.2045083"><ele>40.0</ele><time>2026-04-10T16:48:24.919Z</time></trkpt><trkpt lat="43.78404" lon="11.2045367"><ele>40.0</ele><time>2026-04-10T16:48:26.919Z</time></trkpt><trkpt lat="43.78411" lon="11.204565"><ele>40.0</ele><time>2026-04-10T16:48:28.92Z</time></trkpt><trkpt lat="43.7841767" lon="11.20459"><ele>40.0</ele><time>2026-04-10T16:48:30.92Z</time></trkpt><trkpt lat="43.7842383" lon="11.2046167"><ele>40.0</ele><time>2026-04-10T16:48:32.92Z</time></trkpt><trkpt lat="43.7843083" lon="11.20464"><ele>40.0</ele><time>2026-04-10T16:48:34.919Z</time></trkpt><trkpt lat="43.78438" lon="11.204655"><ele>40.0</ele><time>2026-04-10T16:48:36.919Z</time></trkpt><trkpt lat="43.7844583" lon="11.2046817"><ele>40.0</ele><time>2026-04-10T16:48:38.92Z</time></trkpt><trkpt lat="43.7845383" lon="11.2047117"><ele>40.0</ele><time>2026-04-10T16:48:40.919Z</time></trkpt><trkpt lat="43.7846133" lon="11.20474"><ele>40.0</ele><time>2026-04-10T16:48:42.919Z</time></trkpt><trkpt lat="43.78468" lon="11.2047633"><ele>40.0</ele><time>2026-04-10T16:48:44.919Z</time></trkpt><trkpt lat="43.7847467" lon="11.20479"><ele>40.0</ele><time>2026-04-10T16:48:46.919Z</time></trkpt><trkpt lat="43.7848667" lon="11.204835"><ele>40.0</ele><time>2026-04-10T16:48:49.919Z</time></trkpt><trkpt lat="43.7849417" lon="11.2048683"><ele>39.833333333333336</ele><time>2026-04-10T16:48:51.92Z</time></trkpt><trkpt lat="43.78501" lon="11.204945"><ele>39.66666666666667</ele><time>2026-04-10T16:48:53.919Z</time></trkpt><trkpt lat="43.7850183" lon="11.2050367"><ele>39.5</ele><time>2026-04-10T16:48:55.919Z</time></trkpt><trkpt lat="43.7849933" lon="11.20514"><ele>39.333333333333336</ele><time>2026-04-10T16:48:58.919Z</time></trkpt><trkpt lat="43.7849517" lon="11.2052467"><ele>39.166666666666664</ele><time>2026-04-10T16:49:01.919Z</time></trkpt><trkpt lat="43.784915" lon="11.20535"><ele>39.0</ele><time>2026-04-10T16:49:04.919Z</time></trkpt><trkpt lat="43.7848817" lon="11.2054267"><ele>39.0</ele><time>2026-04-10T16:49:06.92Z</time></trkpt><trkpt lat="43.784835" lon="11.205535"><ele>39.0</ele><time>2026-04-10T16:49:09.919Z</time></trkpt><trkpt lat="43.784795" lon="11.2056183"><ele>39.0</ele><time>2026-04-10T16:49:11.919Z</time></trkpt><trkpt lat="43.7847567" lon="11.205715"><ele>39.0</ele><time>2026-04-10T16:49:13.919Z</time></trkpt><trkpt lat="43.784715" lon="11.2058067"><ele>39.0</ele><time>2026-04-10T16:49:15.919Z</time></trkpt><trkpt lat="43.784675" lon="11.2058933"><ele>39.0</ele><time>2026-04-10T16:49:17.919Z</time></trkpt><trkpt lat="43.7846333" lon="11.205995"><ele>39.166666666666664</ele><time>2026-04-10T16:49:19.919Z</time></trkpt><trkpt lat="43.7845867" lon="11.2061017"><ele>39.333333333333336</ele><time>2026-04-10T16:49:21.919Z</time></trkpt><trkpt lat="43.7845333" lon="11.2061967"><ele>39.5</ele><time>2026-04-10T16:49:23.919Z</time></trkpt><trkpt lat="43.7844817" lon="11.2063"><ele>39.66666666666667</ele><time>2026-04-10T16:49:25.919Z</time></trkpt><trkpt lat="43.7844367" lon="11.20639"><ele>39.833333333333336</ele><time>2026-04-10T16:49:27.92Z</time></trkpt><trkpt lat="43.7843933" lon="11.2064817"><ele>40.0</ele><time>2026-04-10T16:49:29.919Z</time></trkpt><trkpt lat="43.7843533" lon="11.2065717"><ele>40.0</ele><time>2026-04-10T16:49:31.919Z</time></trkpt><trkpt lat="43.7843" lon="11.206685"><ele>40.0</ele><time>2026-04-10T16:49:33.92Z</time></trkpt><trkpt lat="43.7842583" lon="11.206785"><ele>40.0</ele><time>2026-04-10T16:49:35.919Z</time></trkpt><trkpt lat="43.7842117" lon="11.2069"><ele>40.0</ele><time>2026-04-10T16:49:37.919Z</time></trkpt><trkpt lat="43.78416" lon="11.2070067"><ele>40.0</ele><time>2026-04-10T16:49:39.919Z</time></trkpt><trkpt lat="43.7841117" lon="11.207105"><ele>40.0</ele><time>2026-04-10T16:49:41.919Z</time></trkpt><trkpt lat="43.7840667" lon="11.2071933"><ele>40.0</ele><time>2026-04-10T16:49:43.92Z</time></trkpt><trkpt lat="43.784025" lon="11.2072933"><ele>40.0</ele><time>2026-04-10T16:49:45.919Z</time></trkpt><trkpt lat="43.7839767" lon="11.207385"><ele>40.0</ele><time>2026-04-10T16:49:47.919Z</time></trkpt><trkpt lat="43.7839267" lon="11.2074667"><ele>40.0</ele><time>2026-04-10T16:49:49.919Z</time></trkpt><trkpt lat="43.7838767" lon="11.2075683"><ele>40.0</ele><time>2026-04-10T16:49:51.919Z</time></trkpt><trkpt lat="43.7838267" lon="11.2076917"><ele>39.66666666666667</ele><time>2026-04-10T16:49:53.919Z</time></trkpt><trkpt lat="43.7837917" lon="11.2078017"><ele>39.333333333333336</ele><time>2026-04-10T16:49:55.919Z</time></trkpt><trkpt lat="43.783755" lon="11.2079117"><ele>39.0</ele><time>2026-04-10T16:49:57.92Z</time></trkpt><trkpt lat="43.7837183" lon="11.208015"><ele>38.666666666666664</ele><time>2026-04-10T16:49:59.92Z</time></trkpt><trkpt lat="43.7837" lon="11.208115"><ele>38.33333333333333</ele><time>2026-04-10T16:50:01.919Z</time></trkpt><trkpt lat="43.7836867" lon="11.2082167"><ele>38.0</ele><time>2026-04-10T16:50:03.92Z</time></trkpt><trkpt lat="43.7836567" lon="11.2083167"><ele>37.4</ele><time>2026-04-10T16:50:05.92Z</time></trkpt><trkpt lat="43.783595" lon="11.20842"><ele>36.8</ele><time>2026-04-10T16:50:07.919Z</time></trkpt><trkpt lat="43.78354" lon="11.2085217"><ele>36.2</ele><time>2026-04-10T16:50:09.92Z</time></trkpt><trkpt lat="43.783485" lon="11.20864"><ele>35.6</ele><time>2026-04-10T16:50:11.919Z</time></trkpt><trkpt lat="43.7834417" lon="11.20877"><ele>35.0</ele><time>2026-04-10T16:50:13.919Z</time></trkpt><trkpt lat="43.7834083" lon="11.2088983"><ele>35.8</ele><time>2026-04-10T16:50:15.919Z</time></trkpt><trkpt lat="43.783385" lon="11.2090217"><ele>36.6</ele><time>2026-04-10T16:50:17.919Z</time></trkpt><trkpt lat="43.7833583" lon="11.20916"><ele>37.4</ele><time>2026-04-10T16:50:19.919Z</time></trkpt><trkpt lat="43.7833283" lon="11.2092983"><ele>38.2</ele><time>2026-04-10T16:50:21.92Z</time></trkpt><trkpt lat="43.7832867" lon="11.2094067"><ele>39.0</ele><time>2026-04-10T16:50:23.92Z</time></trkpt><trkpt lat="43.783235" lon="11.2095033"><ele>39.0</ele><time>2026-04-10T16:50:25.919Z</time></trkpt><trkpt lat="43.7831767" lon="11.2096117"><ele>39.0</ele><time>2026-04-10T16:50:27.919Z</time></trkpt><trkpt lat="43.7831183" lon="11.2097083"><ele>39.0</ele><time>2026-04-10T16:50:29.919Z</time></trkpt><trkpt lat="43.7830533" lon="11.2097967"><ele>39.0</ele><time>2026-04-10T16:50:31.919Z</time></trkpt><trkpt lat="43.7829983" lon="11.2098783"><ele>39.0</ele><time>2026-04-10T16:50:33.919Z</time></trkpt><trkpt lat="43.7829533" lon="11.2099783"><ele>39.0</ele><time>2026-04-10T16:50:35.919Z</time></trkpt><trkpt lat="43.7829117" lon="11.2100967"><ele>39.166666666666664</ele><time>2026-04-10T16:50:37.919Z</time></trkpt><trkpt lat="43.782875" lon="11.21021"><ele>39.333333333333336</ele><time>2026-04-10T16:50:39.919Z</time></trkpt><trkpt lat="43.7828383" lon="11.2103167"><ele>39.5</ele><time>2026-04-10T16:50:41.919Z</time></trkpt><trkpt lat="43.7827933" lon="11.2104217"><ele>39.66666666666667</ele><time>2026-04-10T16:50:43.92Z</time></trkpt><trkpt lat="43.7827383" lon="11.210525"><ele>39.833333333333336</ele><time>2026-04-10T16:50:45.919Z</time></trkpt><trkpt lat="43.7826783" lon="11.2106167"><ele>40.0</ele><time>2026-04-10T16:50:47.919Z</time></trkpt><trkpt lat="43.7826333" lon="11.210705"><ele>39.5</ele><time>2026-04-10T16:50:49.92Z</time></trkpt><trkpt lat="43.7825833" lon="11.2107767"><ele>39.0</ele><time>2026-04-10T16:50:51.92Z</time></trkpt><trkpt lat="43.7825383" lon="11.210855"><ele>38.5</ele><time>2026-04-10T16:50:53.92Z</time></trkpt><trkpt lat="43.7825083" lon="11.2109383"><ele>38.0</ele><time>2026-04-10T16:50:55.919Z</time></trkpt><trkpt lat="43.7824733" lon="11.21105"><ele>37.5</ele><time>2026-04-10T16:50:57.919Z</time></trkpt><trkpt lat="43.782435" lon="11.2111633"><ele>37.0</ele><time>2026-04-10T16:50:59.919Z</time></trkpt><trkpt lat="43.782385" lon="11.2112867"><ele>37.0</ele><time>2026-04-10T16:51:01.919Z</time></trkpt><trkpt lat="43.7823367" lon="11.2114117"><ele>37.0</ele><time>2026-04-10T16:51:03.919Z</time></trkpt><trkpt lat="43.7822967" lon="11.2115267"><ele>37.0</ele><time>2026-04-10T16:51:05.92Z</time></trkpt><trkpt lat="43.7822567" lon="11.21163"><ele>37.0</ele><time>2026-04-10T16:51:07.919Z</time></trkpt><trkpt lat="43.7822117" lon="11.2117233"><ele>37.0</ele><time>2026-04-10T16:51:09.919Z</time></trkpt><trkpt lat="43.7821617" lon="11.21182"><ele>37.0</ele><time>2026-04-10T16:51:11.919Z</time></trkpt><trkpt lat="43.7821117" lon="11.2119183"><ele>36.333333333333336</ele><time>2026-04-10T16:51:13.919Z</time></trkpt><trkpt lat="43.7820633" lon="11.2120133"><ele>35.66666666666667</ele><time>2026-04-10T16:51:15.92Z</time></trkpt><trkpt lat="43.782015" lon="11.2121033"><ele>35.0</ele><time>2026-04-10T16:51:17.92Z</time></trkpt><trkpt lat="43.7819733" lon="11.2122"><ele>34.333333333333336</ele><time>2026-04-10T16:51:19.92Z</time></trkpt><trkpt lat="43.7819433" lon="11.2123083"><ele>33.666666666666664</ele><time>2026-04-10T16:51:21.92Z</time></trkpt><trkpt lat="43.7819133" lon="11.2123983"><ele>33.0</ele><time>2026-04-10T16:51:23.92Z</time></trkpt><trkpt lat="43.7818683" lon="11.2124983"><ele>33.857142857142854</ele><time>2026-04-10T16:51:26.92Z</time></trkpt><trkpt lat="43.78184" lon="11.2125767"><ele>34.714285714285715</ele><time>2026-04-10T16:51:29.919Z</time></trkpt><trkpt lat="43.7818017" lon="11.2126617"><ele>35.57142857142857</ele><time>2026-04-10T16:51:33.919Z</time></trkpt><trkpt lat="43.7817567" lon="11.2127567"><ele>36.42857142857143</ele><time>2026-04-10T16:51:37.92Z</time></trkpt><trkpt lat="43.781705" lon="11.2128233"><ele>37.285714285714285</ele><time>2026-04-10T16:51:40.919Z</time></trkpt><trkpt lat="43.78165" lon="11.2128933"><ele>38.142857142857146</ele><time>2026-04-10T16:51:43.92Z</time></trkpt><trkpt lat="43.7816117" lon="11.212975"><ele>39.0</ele><time>2026-04-10T16:51:46.919Z</time></trkpt><trkpt lat="43.781565" lon="11.213065"><ele>38.57142857142858</ele><time>2026-04-10T16:51:49.919Z</time></trkpt><trkpt lat="43.7815183" lon="11.2131567"><ele>38.14285714285714</ele><time>2026-04-10T16:51:52.92Z</time></trkpt><trkpt lat="43.7814683" lon="11.213255"><ele>37.714285714285715</ele><time>2026-04-10T16:51:55.919Z</time></trkpt><trkpt lat="43.7814317" lon="11.21333"><ele>37.28571428571429</ele><time>2026-04-10T16:51:57.919Z</time></trkpt><trkpt lat="43.781395" lon="11.21341"><ele>36.85714285714286</ele><time>2026-04-10T16:51:59.919Z</time></trkpt><trkpt lat="43.7813583" lon="11.2134883"><ele>36.42857142857143</ele><time>2026-04-10T16:52:01.919Z</time></trkpt><trkpt lat="43.7813183" lon="11.2135667"><ele>36.0</ele><time>2026-04-10T16:52:03.919Z</time></trkpt><trkpt lat="43.7812833" lon="11.2136483"><ele>36.0</ele><time>2026-04-10T16:52:05.919Z</time></trkpt><trkpt lat="43.781235" lon="11.2137583"><ele>36.0</ele><time>2026-04-10T16:52:08.919Z</time></trkpt><trkpt lat="43.781175" lon="11.2138467"><ele>36.0</ele><time>2026-04-10T16:52:11.92Z</time></trkpt><trkpt lat="43.781125" lon="11.21391"><ele>36.0</ele><time>2026-04-10T16:52:13.919Z</time></trkpt><trkpt lat="43.78108" lon="11.2139933"><ele>36.0</ele><time>2026-04-10T16:52:15.92Z</time></trkpt><trkpt lat="43.7810383" lon="11.2140833"><ele>36.0</ele><time>2026-04-10T16:52:17.919Z</time></trkpt><trkpt lat="43.7809967" lon="11.21418"><ele>36.8</ele><time>2026-04-10T16:52:19.92Z</time></trkpt><trkpt lat="43.7809483" lon="11.2142817"><ele>37.6</ele><time>2026-04-10T16:52:21.919Z</time></trkpt><trkpt lat="43.7809017" lon="11.2143883"><ele>38.4</ele><time>2026-04-10T16:52:23.92Z</time></trkpt><trkpt lat="43.7808483" lon="11.2144917"><ele>39.2</ele><time>2026-04-10T16:52:25.919Z</time></trkpt><trkpt lat="43.7807967" lon="11.2145883"><ele>40.0</ele><time>2026-04-10T16:52:27.919Z</time></trkpt><trkpt lat="43.7807433" lon="11.2147"><ele>40.0</ele><time>2026-04-10T16:52:29.919Z</time></trkpt><trkpt lat="43.7807017" lon="11.2148117"><ele>40.0</ele><time>2026-04-10T16:52:31.919Z</time></trkpt><trkpt lat="43.780655" lon="11.214925"><ele>40.0</ele><time>2026-04-10T16:52:33.919Z</time></trkpt><trkpt lat="43.78061" lon="11.2150317"><ele>40.0</ele><time>2026-04-10T16:52:35.919Z</time></trkpt><trkpt lat="43.7805717" lon="11.2151283"><ele>40.0</ele><time>2026-04-10T16:52:37.92Z</time></trkpt><trkpt lat="43.7805367" lon="11.2152167"><ele>40.0</ele><time>2026-04-10T16:52:39.919Z</time></trkpt><trkpt lat="43.7805" lon="11.21531"><ele>39.833333333333336</ele><time>2026-04-10T16:52:41.919Z</time></trkpt><trkpt lat="43.78046" lon="11.2153967"><ele>39.66666666666667</ele><time>2026-04-10T16:52:43.92Z</time></trkpt><trkpt lat="43.78042" lon="11.2154783"><ele>39.5</ele><time>2026-04-10T16:52:45.92Z</time></trkpt><trkpt lat="43.7803733" lon="11.21558"><ele>39.333333333333336</ele><time>2026-04-10T16:52:47.919Z</time></trkpt><trkpt lat="43.780325" lon="11.2156767"><ele>39.166666666666664</ele><time>2026-04-10T16:52:49.919Z</time></trkpt><trkpt lat="43.7802833" lon="11.2157867"><ele>39.0</ele><time>2026-04-10T16:52:51.919Z</time></trkpt><trkpt lat="43.7802317" lon="11.215905"><ele>38.6</ele><time>2026-04-10T16:52:53.92Z</time></trkpt><trkpt lat="43.78019" lon="11.2159983"><ele>38.2</ele><time>2026-04-10T16:52:55.919Z</time></trkpt><trkpt lat="43.780145" lon="11.2161117"><ele>37.800000000000004</ele><time>2026-04-10T16:52:57.919Z</time></trkpt><trkpt lat="43.780105" lon="11.2162167"><ele>37.4</ele><time>2026-04-10T16:52:59.919Z</time></trkpt><trkpt lat="43.78007" lon="11.21632"><ele>37.0</ele><time>2026-04-10T16:53:01.92Z</time></trkpt><trkpt lat="43.7800083" lon="11.2164517"><ele>37.8</ele><time>2026-04-10T16:53:03.919Z</time></trkpt><trkpt lat="43.7799617" lon="11.216575"><ele>38.6</ele><time>2026-04-10T16:53:05.919Z</time></trkpt><trkpt lat="43.7799167" lon="11.2166883"><ele>39.4</ele><time>2026-04-10T16:53:07.919Z</time></trkpt><trkpt lat="43.7798683" lon="11.2168033"><ele>40.199999999999996</ele><time>2026-04-10T16:53:09.919Z</time></trkpt><trkpt lat="43.7798217" lon="11.2169283"><ele>41.0</ele><time>2026-04-10T16:53:11.919Z</time></trkpt><trkpt lat="43.7798217" lon="11.2170517"><ele>41.0</ele><time>2026-04-10T16:53:13.919Z</time></trkpt><trkpt lat="43.7798433" lon="11.217185"><ele>41.0</ele><time>2026-04-10T16:53:15.92Z</time></trkpt><trkpt lat="43.7798133" lon="11.2173267"><ele>41.0</ele><time>2026-04-10T16:53:17.92Z</time></trkpt><trkpt lat="43.779745" lon="11.21746"><ele>41.0</ele><time>2026-04-10T16:53:19.919Z</time></trkpt><trkpt lat="43.779685" lon="11.2175817"><ele>41.0</ele><time>2026-04-10T16:53:21.919Z</time></trkpt><trkpt lat="43.779615" lon="11.21769"><ele>40.8</ele><time>2026-04-10T16:53:23.919Z</time></trkpt><trkpt lat="43.7795367" lon="11.2178"><ele>40.599999999999994</ele><time>2026-04-10T16:53:25.92Z</time></trkpt><trkpt lat="43.7795" lon="11.217935"><ele>40.4</ele><time>2026-04-10T16:53:27.919Z</time></trkpt><trkpt lat="43.7794833" lon="11.21807"><ele>40.2</ele><time>2026-04-10T16:53:29.919Z</time></trkpt><trkpt lat="43.779425" lon="11.2181817"><ele>40.0</ele><time>2026-04-10T16:53:31.919Z</time></trkpt><trkpt lat="43.7793767" lon="11.2183067"><ele>40.4</ele><time>2026-04-10T16:53:33.92Z</time></trkpt><trkpt lat="43.77934" lon="11.218445"><ele>40.8</ele><time>2026-04-10T16:53:35.919Z</time></trkpt><trkpt lat="43.7793" lon="11.218575"><ele>41.2</ele><time>2026-04-10T16:53:37.919Z</time></trkpt><trkpt lat="43.7792333" lon="11.2186633"><ele>41.6</ele><time>2026-04-10T16:53:39.919Z</time></trkpt><trkpt lat="43.7791567" lon="11.21874"><ele>42.0</ele><time>2026-04-10T16:53:41.92Z</time></trkpt><trkpt lat="43.779115" lon="11.2188383"><ele>42.0</ele><time>2026-04-10T16:53:43.92Z</time></trkpt><trkpt lat="43.779085" lon="11.2189267"><ele>42.0</ele><time>2026-04-10T16:53:45.919Z</time></trkpt><trkpt lat="43.7790533" lon="11.21901"><ele>42.0</ele><time>2026-04-10T16:53:47.92Z</time></trkpt><trkpt lat="43.7790217" lon="11.2190983"><ele>42.0</ele><time>2026-04-10T16:53:49.92Z</time></trkpt><trkpt lat="43.7789783" lon="11.2191983"><ele>42.0</ele><time>2026-04-10T16:53:51.919Z</time></trkpt><trkpt lat="43.77892" lon="11.2193433"><ele>42.0</ele><time>2026-04-10T16:53:53.919Z</time></trkpt><trkpt lat="43.7788667" lon="11.2194817"><ele>42.0</ele><time>2026-04-10T16:53:55.919Z</time></trkpt><trkpt lat="43.77882" lon="11.2196117"><ele>42.0</ele><time>2026-04-10T16:53:57.919Z</time></trkpt><trkpt lat="43.7787633" lon="11.21975"><ele>42.0</ele><time>2026-04-10T16:53:59.919Z</time></trkpt><trkpt lat="43.7787067" lon="11.2198933"><ele>42.0</ele><time>2026-04-10T16:54:01.919Z</time></trkpt><trkpt lat="43.7786517" lon="11.2200283"><ele>42.0</ele><time>2026-04-10T16:54:03.919Z</time></trkpt><trkpt lat="43.7786083" lon="11.220155"><ele>42.0</ele><time>2026-04-10T16:54:05.919Z</time></trkpt><trkpt lat="43.77856" lon="11.2202867"><ele>42.0</ele><time>2026-04-10T16:54:07.92Z</time></trkpt><trkpt lat="43.7785117" lon="11.22042"><ele>42.0</ele><time>2026-04-10T16:54:09.919Z</time></trkpt><trkpt lat="43.7784617" lon="11.2205417"><ele>42.0</ele><time>2026-04-10T16:54:11.919Z</time></trkpt><trkpt lat="43.778415" lon="11.2206683"><ele>42.8</ele><time>2026-04-10T16:54:13.919Z</time></trkpt><trkpt lat="43.77837" lon="11.2207917"><ele>43.6</ele><time>2026-04-10T16:54:15.919Z</time></trkpt><trkpt lat="43.7783233" lon="11.2209117"><ele>44.4</ele><time>2026-04-10T16:54:17.92Z</time></trkpt><trkpt lat="43.778275" lon="11.2210417"><ele>45.199999999999996</ele><time>2026-04-10T16:54:19.919Z</time></trkpt><trkpt lat="43.7782183" lon="11.2211917"><ele>46.0</ele><time>2026-04-10T16:54:21.92Z</time></trkpt><trkpt lat="43.778165" lon="11.2213433"><ele>46.0</ele><time>2026-04-10T16:54:23.92Z</time></trkpt><trkpt lat="43.7781183" lon="11.2214683"><ele>46.0</ele><time>2026-04-10T16:54:25.92Z</time></trkpt><trkpt lat="43.7780833" lon="11.2215683"><ele>46.0</ele><time>2026-04-10T16:54:27.92Z</time></trkpt><trkpt lat="43.7780633" lon="11.2216717"><ele>46.0</ele><time>2026-04-10T16:54:29.919Z</time></trkpt><trkpt lat="43.7780667" lon="11.2217883"><ele>46.0</ele><time>2026-04-10T16:54:31.919Z</time></trkpt><trkpt lat="43.7780533" lon="11.22189"><ele>46.0</ele><time>2026-04-10T16:54:33.919Z</time></trkpt><trkpt lat="43.7780133" lon="11.2219883"><ele>46.0</ele><time>2026-04-10T16:54:35.919Z</time></trkpt><trkpt lat="43.7779583" lon="11.2221183"><ele>46.0</ele><time>2026-04-10T16:54:37.919Z</time></trkpt><trkpt lat="43.7779117" lon="11.2222417"><ele>46.0</ele><time>2026-04-10T16:54:39.919Z</time></trkpt><trkpt lat="43.7778633" lon="11.22236"><ele>46.0</ele><time>2026-04-10T16:54:41.919Z</time></trkpt><trkpt lat="43.7778267" lon="11.22247"><ele>46.0</ele><time>2026-04-10T16:54:43.919Z</time></trkpt><trkpt lat="43.7777767" lon="11.2225933"><ele>46.0</ele><time>2026-04-10T16:54:45.919Z</time></trkpt><trkpt lat="43.777735" lon="11.2227133"><ele>46.0</ele><time>2026-04-10T16:54:47.919Z</time></trkpt><trkpt lat="43.7777017" lon="11.2228467"><ele>46.0</ele><time>2026-04-10T16:54:49.92Z</time></trkpt><trkpt lat="43.777665" lon="11.22294"><ele>46.0</ele><time>2026-04-10T16:54:51.919Z</time></trkpt><trkpt lat="43.7776267" lon="11.2230533"><ele>46.0</ele><time>2026-04-10T16:54:53.919Z</time></trkpt><trkpt lat="43.7775867" lon="11.22316"><ele>45.5</ele><time>2026-04-10T16:54:55.919Z</time></trkpt><trkpt lat="43.7775467" lon="11.2232783"><ele>45.0</ele><time>2026-04-10T16:54:57.919Z</time></trkpt><trkpt lat="43.777515" lon="11.2233933"><ele>44.5</ele><time>2026-04-10T16:54:59.919Z</time></trkpt><trkpt lat="43.7774833" lon="11.223505"><ele>44.0</ele><time>2026-04-10T16:55:01.919Z</time></trkpt><trkpt lat="43.777445" lon="11.2236117"><ele>43.5</ele><time>2026-04-10T16:55:03.919Z</time></trkpt><trkpt lat="43.7773933" lon="11.223695"><ele>43.0</ele><time>2026-04-10T16:55:05.919Z</time></trkpt><trkpt lat="43.7773333" lon="11.22379"><ele>43.0</ele><time>2026-04-10T16:55:07.919Z</time></trkpt><trkpt lat="43.7772917" lon="11.22391"><ele>43.0</ele><time>2026-04-10T16:55:09.919Z</time></trkpt><trkpt lat="43.777255" lon="11.2240317"><ele>43.0</ele><time>2026-04-10T16:55:11.919Z</time></trkpt><trkpt lat="43.777225" lon="11.2241483"><ele>43.0</ele><time>2026-04-10T16:55:13.919Z</time></trkpt><trkpt lat="43.77722" lon="11.22425"><ele>43.0</ele><time>2026-04-10T16:55:15.919Z</time></trkpt><trkpt lat="43.7772333" lon="11.22437"><ele>43.0</ele><time>2026-04-10T16:55:17.919Z</time></trkpt><trkpt lat="43.7772333" lon="11.2244917"><ele>42.833333333333336</ele><time>2026-04-10T16:55:19.919Z</time></trkpt><trkpt lat="43.777215" lon="11.22462"><ele>42.66666666666667</ele><time>2026-04-10T16:55:21.92Z</time></trkpt><trkpt lat="43.7771767" lon="11.224735"><ele>42.5</ele><time>2026-04-10T16:55:23.919Z</time></trkpt><trkpt lat="43.777135" lon="11.2248417"><ele>42.333333333333336</ele><time>2026-04-10T16:55:25.919Z</time></trkpt><trkpt lat="43.7771033" lon="11.22495"><ele>42.166666666666664</ele><time>2026-04-10T16:55:27.919Z</time></trkpt><trkpt lat="43.7770667" lon="11.2250533"><ele>42.0</ele><time>2026-04-10T16:55:29.919Z</time></trkpt><trkpt lat="43.7770317" lon="11.225155"><ele>42.0</ele><time>2026-04-10T16:55:31.919Z</time></trkpt><trkpt lat="43.7770017" lon="11.2252583"><ele>42.0</ele><time>2026-04-10T16:55:33.919Z</time></trkpt><trkpt lat="43.7769733" lon="11.22536"><ele>42.0</ele><time>2026-04-10T16:55:35.919Z</time></trkpt><trkpt lat="43.7769417" lon="11.2254767"><ele>42.0</ele><time>2026-04-10T16:55:37.92Z</time></trkpt><trkpt lat="43.776905" lon="11.225595"><ele>42.0</ele><time>2026-04-10T16:55:39.919Z</time></trkpt><trkpt lat="43.776875" lon="11.2257117"><ele>42.0</ele><time>2026-04-10T16:55:41.919Z</time></trkpt><trkpt lat="43.7768517" lon="11.2258317"><ele>42.0</ele><time>2026-04-10T16:55:43.919Z</time></trkpt><trkpt lat="43.7768183" lon="11.2259433"><ele>42.0</ele><time>2026-04-10T16:55:45.92Z</time></trkpt><trkpt lat="43.7767767" lon="11.2260533"><ele>42.0</ele><time>2026-04-10T16:55:47.919Z</time></trkpt><trkpt lat="43.7767383" lon="11.2261617"><ele>42.0</ele><time>2026-04-10T16:55:49.919Z</time></trkpt><trkpt lat="43.776715" lon="11.22628"><ele>42.0</ele><time>2026-04-10T16:55:51.919Z</time></trkpt><trkpt lat="43.7766867" lon="11.2263917"><ele>42.0</ele><time>2026-04-10T16:55:53.92Z</time></trkpt><trkpt lat="43.7766367" lon="11.2265017"><ele>42.0</ele><time>2026-04-10T16:55:55.919Z</time></trkpt><trkpt lat="43.776585" lon="11.2266267"><ele>42.0</ele><time>2026-04-10T16:55:57.919Z</time></trkpt><trkpt lat="43.7765417" lon="11.226755"><ele>42.0</ele><time>2026-04-10T16:55:59.919Z</time></trkpt><trkpt lat="43.7765" lon="11.2268867"><ele>42.0</ele><time>2026-04-10T16:56:01.919Z</time></trkpt><trkpt lat="43.7764617" lon="11.227015"><ele>42.0</ele><time>2026-04-10T16:56:03.919Z</time></trkpt><trkpt lat="43.7764183" lon="11.22714"><ele>42.0</ele><time>2026-04-10T16:56:05.919Z</time></trkpt><trkpt lat="43.77638" lon="11.227255"><ele>42.0</ele><time>2026-04-10T16:56:07.919Z</time></trkpt><trkpt lat="43.7763383" lon="11.2273733"><ele>42.0</ele><time>2026-04-10T16:56:09.92Z</time></trkpt><trkpt lat="43.7763017" lon="11.2274933"><ele>42.0</ele><time>2026-04-10T16:56:11.92Z</time></trkpt><trkpt lat="43.776265" lon="11.2276067"><ele>42.0</ele><time>2026-04-10T16:56:13.92Z</time></trkpt><trkpt lat="43.776225" lon="11.227725"><ele>42.2</ele><time>2026-04-10T16:56:15.92Z</time></trkpt><trkpt lat="43.7761867" lon="11.2278517"><ele>42.400000000000006</ele><time>2026-04-10T16:56:17.919Z</time></trkpt><trkpt lat="43.7761467" lon="11.2279767"><ele>42.599999999999994</ele><time>2026-04-10T16:56:19.919Z</time></trkpt><trkpt lat="43.7761017" lon="11.2281"><ele>42.8</ele><time>2026-04-10T16:56:21.92Z</time></trkpt><trkpt lat="43.7760583" lon="11.2282233"><ele>43.0</ele><time>2026-04-10T16:56:23.919Z</time></trkpt><trkpt lat="43.77602" lon="11.228345"><ele>43.0</ele><time>2026-04-10T16:56:25.919Z</time></trkpt><trkpt lat="43.775985" lon="11.2284617"><ele>43.0</ele><time>2026-04-10T16:56:27.919Z</time></trkpt><trkpt lat="43.775955" lon="11.22856"><ele>43.0</ele><time>2026-04-10T16:56:29.92Z</time></trkpt><trkpt lat="43.7759233" lon="11.2286483"><ele>43.0</ele><time>2026-04-10T16:56:31.919Z</time></trkpt><trkpt lat="43.7758933" lon="11.228725"><ele>43.0</ele><time>2026-04-10T16:56:33.919Z</time></trkpt><trkpt lat="43.7758617" lon="11.2288233"><ele>43.0</ele><time>2026-04-10T16:56:36.919Z</time></trkpt><trkpt lat="43.7758483" lon="11.228925"><ele>42.833333333333336</ele><time>2026-04-10T16:56:39.919Z</time></trkpt><trkpt lat="43.7758833" lon="11.229025"><ele>42.66666666666667</ele><time>2026-04-10T16:56:42.919Z</time></trkpt><trkpt lat="43.7759567" lon="11.2291167"><ele>42.5</ele><time>2026-04-10T16:56:45.919Z</time></trkpt><trkpt lat="43.776015" lon="11.229185"><ele>42.333333333333336</ele><time>2026-04-10T16:56:48.919Z</time></trkpt><trkpt lat="43.7761067" lon="11.2292517"><ele>42.166666666666664</ele><time>2026-04-10T16:56:51.92Z</time></trkpt><trkpt lat="43.776165" lon="11.2292967"><ele>42.0</ele><time>2026-04-10T16:56:53.92Z</time></trkpt><trkpt lat="43.7762467" lon="11.2293317"><ele>42.0</ele><time>2026-04-10T16:56:55.919Z</time></trkpt><trkpt lat="43.776315" lon="11.2293583"><ele>42.0</ele><time>2026-04-10T16:56:57.919Z</time></trkpt><trkpt lat="43.776375" lon="11.2294033"><ele>42.0</ele><time>2026-04-10T16:56:59.919Z</time></trkpt><trkpt lat="43.77644" lon="11.2294533"><ele>42.0</ele><time>2026-04-10T16:57:01.919Z</time></trkpt><trkpt lat="43.776505" lon="11.229515"><ele>42.0</ele><time>2026-04-10T16:57:03.919Z</time></trkpt><trkpt lat="43.7765817" lon="11.2295717"><ele>42.0</ele><time>2026-04-10T16:57:05.919Z</time></trkpt><trkpt lat="43.7766617" lon="11.2296317"><ele>42.0</ele><time>2026-04-10T16:57:07.919Z</time></trkpt><trkpt lat="43.7767533" lon="11.229695"><ele>42.0</ele><time>2026-04-10T16:57:09.92Z</time></trkpt><trkpt lat="43.7768483" lon="11.229775"><ele>42.0</ele><time>2026-04-10T16:57:11.919Z</time></trkpt><trkpt lat="43.7769083" lon="11.229895"><ele>42.0</ele><time>2026-04-10T16:57:13.919Z</time></trkpt><trkpt lat="43.77691" lon="11.2300433"><ele>42.0</ele><time>2026-04-10T16:57:15.92Z</time></trkpt><trkpt lat="43.7768883" lon="11.2301933"><ele>42.2</ele><time>2026-04-10T16:57:17.919Z</time></trkpt><trkpt lat="43.77685" lon="11.2303383"><ele>42.400000000000006</ele><time>2026-04-10T16:57:19.919Z</time></trkpt><trkpt lat="43.7768133" lon="11.23047"><ele>42.599999999999994</ele><time>2026-04-10T16:57:21.92Z</time></trkpt><trkpt lat="43.7767717" lon="11.2306017"><ele>42.8</ele><time>2026-04-10T16:57:23.919Z</time></trkpt><trkpt lat="43.7767317" lon="11.2307317"><ele>43.0</ele><time>2026-04-10T16:57:25.919Z</time></trkpt><trkpt lat="43.7766933" lon="11.23085"><ele>43.16666666666667</ele><time>2026-04-10T16:57:27.92Z</time></trkpt><trkpt lat="43.7766617" lon="11.2309667"><ele>43.333333333333336</ele><time>2026-04-10T16:57:29.919Z</time></trkpt><trkpt lat="43.77663" lon="11.2310733"><ele>43.5</ele><time>2026-04-10T16:57:31.919Z</time></trkpt><trkpt lat="43.7766083" lon="11.2311717"><ele>43.666666666666664</ele><time>2026-04-10T16:57:33.92Z</time></trkpt><trkpt lat="43.7765883" lon="11.231275"><ele>43.83333333333333</ele><time>2026-04-10T16:57:35.92Z</time></trkpt><trkpt lat="43.77656" lon="11.23138"><ele>44.0</ele><time>2026-04-10T16:57:37.919Z</time></trkpt><trkpt lat="43.77653" lon="11.2314933"><ele>44.800000000000004</ele><time>2026-04-10T16:57:39.919Z</time></trkpt><trkpt lat="43.7764983" lon="11.2316117"><ele>45.6</ele><time>2026-04-10T16:57:41.92Z</time></trkpt><trkpt lat="43.7764617" lon="11.23174"><ele>46.4</ele><time>2026-04-10T16:57:43.92Z</time></trkpt><trkpt lat="43.7764183" lon="11.2318683"><ele>47.2</ele><time>2026-04-10T16:57:45.919Z</time></trkpt><trkpt lat="43.7763767" lon="11.2319983"><ele>48.0</ele><time>2026-04-10T16:57:47.919Z</time></trkpt><trkpt lat="43.7763367" lon="11.2321317"><ele>48.0</ele><time>2026-04-10T16:57:49.919Z</time></trkpt><trkpt lat="43.7762983" lon="11.2322667"><ele>48.0</ele><time>2026-04-10T16:57:51.92Z</time></trkpt><trkpt lat="43.7762583" lon="11.2323933"><ele>48.0</ele><time>2026-04-10T16:57:53.919Z</time></trkpt><trkpt lat="43.7762267" lon="11.232525"><ele>48.0</ele><time>2026-04-10T16:57:55.919Z</time></trkpt><trkpt lat="43.7762" lon="11.2326517"><ele>48.0</ele><time>2026-04-10T16:57:57.92Z</time></trkpt><trkpt lat="43.77617" lon="11.2327867"><ele>48.4</ele><time>2026-04-10T16:57:59.919Z</time></trkpt><trkpt lat="43.776135" lon="11.232915"><ele>48.8</ele><time>2026-04-10T16:58:01.92Z</time></trkpt><trkpt lat="43.7760917" lon="11.23303"><ele>49.2</ele><time>2026-04-10T16:58:03.919Z</time></trkpt><trkpt lat="43.77605" lon="11.2331533"><ele>49.6</ele><time>2026-04-10T16:58:05.919Z</time></trkpt><trkpt lat="43.776015" lon="11.233285"><ele>50.0</ele><time>2026-04-10T16:58:07.919Z</time></trkpt><trkpt lat="43.775985" lon="11.2334133"><ele>48.8</ele><time>2026-04-10T16:58:09.92Z</time></trkpt><trkpt lat="43.7759583" lon="11.23354"><ele>47.6</ele><time>2026-04-10T16:58:11.919Z</time></trkpt><trkpt lat="43.7759217" lon="11.2336683"><ele>46.400000000000006</ele><time>2026-04-10T16:58:13.92Z</time></trkpt><trkpt lat="43.77589" lon="11.2337983"><ele>45.2</ele><time>2026-04-10T16:58:15.919Z</time></trkpt><trkpt lat="43.7758717" lon="11.2339283"><ele>44.0</ele><time>2026-04-10T16:58:17.919Z</time></trkpt><trkpt lat="43.7758567" lon="11.2340617"><ele>44.0</ele><time>2026-04-10T16:58:19.919Z</time></trkpt><trkpt lat="43.7758383" lon="11.2342"><ele>44.0</ele><time>2026-04-10T16:58:21.919Z</time></trkpt><trkpt lat="43.775825" lon="11.2343367"><ele>44.0</ele><time>2026-04-10T16:58:23.919Z</time></trkpt><trkpt lat="43.7758317" lon="11.234465"><ele>44.0</ele><time>2026-04-10T16:58:25.919Z</time></trkpt><trkpt lat="43.775855" lon="11.23459"><ele>44.0</ele><time>2026-04-10T16:58:27.919Z</time></trkpt><trkpt lat="43.7758917" lon="11.23471"><ele>44.0</ele><time>2026-04-10T16:58:29.92Z</time></trkpt><trkpt lat="43.77594" lon="11.2348317"><ele>44.0</ele><time>2026-04-10T16:58:31.919Z</time></trkpt><trkpt lat="43.775995" lon="11.23495"><ele>44.0</ele><time>2026-04-10T16:58:33.919Z</time></trkpt><trkpt lat="43.776045" lon="11.2350617"><ele>44.0</ele><time>2026-04-10T16:58:35.92Z</time></trkpt><trkpt lat="43.7760583" lon="11.23518"><ele>44.0</ele><time>2026-04-10T16:58:37.919Z</time></trkpt><trkpt lat="43.7760467" lon="11.2353"><ele>44.0</ele><time>2026-04-10T16:58:39.919Z</time></trkpt><trkpt lat="43.7760417" lon="11.23542"><ele>44.0</ele><time>2026-04-10T16:58:41.92Z</time></trkpt><trkpt lat="43.776035" lon="11.23555"><ele>44.0</ele><time>2026-04-10T16:58:43.919Z</time></trkpt><trkpt lat="43.776005" lon="11.2356733"><ele>44.0</ele><time>2026-04-10T16:58:45.92Z</time></trkpt><trkpt lat="43.77597" lon="11.2357867"><ele>44.0</ele><time>2026-04-10T16:58:47.919Z</time></trkpt><trkpt lat="43.7759383" lon="11.2358917"><ele>44.0</ele><time>2026-04-10T16:58:49.919Z</time></trkpt><trkpt lat="43.775915" lon="11.2359833"><ele>44.33333333333333</ele><time>2026-04-10T16:58:51.919Z</time></trkpt><trkpt lat="43.7758967" lon="11.236075"><ele>44.666666666666664</ele><time>2026-04-10T16:58:53.919Z</time></trkpt><trkpt lat="43.7758717" lon="11.2361683"><ele>45.0</ele><time>2026-04-10T16:58:55.92Z</time></trkpt><trkpt lat="43.7758567" lon="11.236265"><ele>45.333333333333336</ele><time>2026-04-10T16:58:57.919Z</time></trkpt><trkpt lat="43.775845" lon="11.2363667"><ele>45.66666666666667</ele><time>2026-04-10T16:58:59.919Z</time></trkpt><trkpt lat="43.775825" lon="11.2364883"><ele>46.0</ele><time>2026-04-10T16:59:01.919Z</time></trkpt><trkpt lat="43.7757967" lon="11.2366183"><ele>46.16666666666667</ele><time>2026-04-10T16:59:03.919Z</time></trkpt><trkpt lat="43.7757533" lon="11.2367067"><ele>46.333333333333336</ele><time>2026-04-10T16:59:05.919Z</time></trkpt><trkpt lat="43.7756767" lon="11.2367333"><ele>46.5</ele><time>2026-04-10T16:59:07.919Z</time></trkpt><trkpt lat="43.7756133" lon="11.2367683"><ele>46.666666666666664</ele><time>2026-04-10T16:59:10.919Z</time></trkpt><trkpt lat="43.7756167" lon="11.2368883"><ele>46.83333333333333</ele><time>2026-04-10T16:59:13.919Z</time></trkpt><trkpt lat="43.7755717" lon="11.2370117"><ele>47.0</ele><time>2026-04-10T16:59:16.919Z</time></trkpt><trkpt lat="43.77554" lon="11.2371083"><ele>47.0</ele><time>2026-04-10T16:59:18.919Z</time></trkpt><trkpt lat="43.77551" lon="11.2372"><ele>47.0</ele><time>2026-04-10T16:59:20.92Z</time></trkpt><trkpt lat="43.7754883" lon="11.2372983"><ele>47.0</ele><time>2026-04-10T16:59:22.919Z</time></trkpt><trkpt lat="43.7754633" lon="11.2373917"><ele>47.0</ele><time>2026-04-10T16:59:24.92Z</time></trkpt><trkpt lat="43.77543" lon="11.237485"><ele>47.0</ele><time>2026-04-10T16:59:26.919Z</time></trkpt><trkpt lat="43.7753883" lon="11.23757"><ele>47.0</ele><time>2026-04-10T16:59:28.919Z</time></trkpt><trkpt lat="43.7753533" lon="11.2376767"><ele>47.666666666666664</ele><time>2026-04-10T16:59:30.919Z</time></trkpt><trkpt lat="43.775305" lon="11.2377683"><ele>48.33333333333333</ele><time>2026-04-10T16:59:32.919Z</time></trkpt><trkpt lat="43.7752683" lon="11.237865"><ele>49.0</ele><time>2026-04-10T16:59:34.919Z</time></trkpt><trkpt lat="43.7752217" lon="11.23796"><ele>49.666666666666664</ele><time>2026-04-10T16:59:36.92Z</time></trkpt><trkpt lat="43.775165" lon="11.238045"><ele>50.333333333333336</ele><time>2026-04-10T16:59:38.92Z</time></trkpt><trkpt lat="43.775115" lon="11.2381467"><ele>51.0</ele><time>2026-04-10T16:59:40.92Z</time></trkpt><trkpt lat="43.7750667" lon="11.2382383"><ele>51.166666666666664</ele><time>2026-04-10T16:59:42.919Z</time></trkpt><trkpt lat="43.7750167" lon="11.23834"><ele>51.33333333333333</ele><time>2026-04-10T16:59:44.919Z</time></trkpt><trkpt lat="43.774975" lon="11.2384267"><ele>51.5</ele><time>2026-04-10T16:59:46.919Z</time></trkpt><trkpt lat="43.7749317" lon="11.2385233"><ele>51.666666666666664</ele><time>2026-04-10T16:59:48.919Z</time></trkpt><trkpt lat="43.774885" lon="11.238595"><ele>51.83333333333333</ele><time>2026-04-10T16:59:50.919Z</time></trkpt><trkpt lat="43.7748467" lon="11.2386667"><ele>52.0</ele><time>2026-04-10T16:59:52.919Z</time></trkpt><trkpt lat="43.77481" lon="11.2387617"><ele>51.99999999999999</ele><time>2026-04-10T16:59:54.919Z</time></trkpt><trkpt lat="43.7747767" lon="11.238865"><ele>52.0</ele><time>2026-04-10T16:59:56.919Z</time></trkpt><trkpt lat="43.7747467" lon="11.238965"><ele>52.0</ele><time>2026-04-10T16:59:58.919Z</time></trkpt><trkpt lat="43.7747133" lon="11.239075"><ele>52.0</ele><time>2026-04-10T17:00:00.919Z</time></trkpt><trkpt lat="43.7746783" lon="11.23918"><ele>51.99999999999999</ele><time>2026-04-10T17:00:02.92Z</time></trkpt><trkpt lat="43.774645" lon="11.2392733"><ele>52.0</ele><time>2026-04-10T17:00:04.919Z</time></trkpt><trkpt lat="43.7746017" lon="11.2393633"><ele>52.33333333333333</ele><time>2026-04-10T17:00:06.919Z</time></trkpt><trkpt lat="43.774555" lon="11.2394533"><ele>52.666666666666664</ele><time>2026-04-10T17:00:08.919Z</time></trkpt><trkpt lat="43.774515" lon="11.2395483"><ele>53.0</ele><time>2026-04-10T17:00:10.919Z</time></trkpt><trkpt lat="43.7744683" lon="11.2396417"><ele>53.33333333333333</ele><time>2026-04-10T17:00:12.92Z</time></trkpt><trkpt lat="43.774435" lon="11.2397283"><ele>53.666666666666664</ele><time>2026-04-10T17:00:14.919Z</time></trkpt><trkpt lat="43.7744083" lon="11.2398117"><ele>54.0</ele><time>2026-04-10T17:00:16.919Z</time></trkpt><trkpt lat="43.7743717" lon="11.2399167"><ele>53.714285714285715</ele><time>2026-04-10T17:00:19.919Z</time></trkpt><trkpt lat="43.77431" lon="11.239965"><ele>53.42857142857143</ele><time>2026-04-10T17:00:21.919Z</time></trkpt><trkpt lat="43.774225" lon="11.2399267"><ele>53.14285714285714</ele><time>2026-04-10T17:00:25.92Z</time></trkpt><trkpt lat="43.7741667" lon="11.239885"><ele>52.85714285714286</ele><time>2026-04-10T17:00:27.919Z</time></trkpt><trkpt lat="43.7741" lon="11.23985"><ele>52.57142857142858</ele><time>2026-04-10T17:00:29.919Z</time></trkpt><trkpt lat="43.77404" lon="11.2398133"><ele>52.285714285714285</ele><time>2026-04-10T17:00:31.919Z</time></trkpt><trkpt lat="43.77397" lon="11.2398383"><ele>52.0</ele><time>2026-04-10T17:00:33.919Z</time></trkpt><trkpt lat="43.7739267" lon="11.2399117"><ele>51.99999999999999</ele><time>2026-04-10T17:00:35.919Z</time></trkpt><trkpt lat="43.7739017" lon="11.2399983"><ele>52.0</ele><time>2026-04-10T17:00:37.919Z</time></trkpt><trkpt lat="43.7738683" lon="11.2400867"><ele>52.0</ele><time>2026-04-10T17:00:39.92Z</time></trkpt><trkpt lat="43.77384" lon="11.2401833"><ele>52.0</ele><time>2026-04-10T17:00:41.919Z</time></trkpt><trkpt lat="43.773805" lon="11.2402767"><ele>51.99999999999999</ele><time>2026-04-10T17:00:43.92Z</time></trkpt><trkpt lat="43.773765" lon="11.2403667"><ele>52.0</ele><time>2026-04-10T17:00:45.92Z</time></trkpt><trkpt lat="43.7737217" lon="11.2404733"><ele>51.99999999999999</ele><time>2026-04-10T17:00:47.919Z</time></trkpt><trkpt lat="43.77368" lon="11.240575"><ele>52.0</ele><time>2026-04-10T17:00:49.919Z</time></trkpt><trkpt lat="43.7736483" lon="11.2407033"><ele>52.0</ele><time>2026-04-10T17:00:51.919Z</time></trkpt><trkpt lat="43.7736017" lon="11.24081"><ele>52.0</ele><time>2026-04-10T17:00:53.919Z</time></trkpt><trkpt lat="43.7735617" lon="11.240915"><ele>51.99999999999999</ele><time>2026-04-10T17:00:55.919Z</time></trkpt><trkpt lat="43.77352" lon="11.24102"><ele>52.0</ele><time>2026-04-10T17:00:57.919Z</time></trkpt><trkpt lat="43.7734867" lon="11.241125"><ele>50.83333333333333</ele><time>2026-04-10T17:00:59.919Z</time></trkpt><trkpt lat="43.7734533" lon="11.2412267"><ele>49.666666666666664</ele><time>2026-04-10T17:01:01.919Z</time></trkpt><trkpt lat="43.7734183" lon="11.24133"><ele>48.5</ele><time>2026-04-10T17:01:03.919Z</time></trkpt><trkpt lat="43.773375" lon="11.2414433"><ele>47.33333333333333</ele><time>2026-04-10T17:01:05.92Z</time></trkpt><trkpt lat="43.77334" lon="11.2415517"><ele>46.166666666666664</ele><time>2026-04-10T17:01:07.92Z</time></trkpt><trkpt lat="43.7733" lon="11.2416583"><ele>45.0</ele><time>2026-04-10T17:01:09.92Z</time></trkpt><trkpt lat="43.773255" lon="11.24177"><ele>44.8</ele><time>2026-04-10T17:01:11.919Z</time></trkpt><trkpt lat="43.7732217" lon="11.24188"><ele>44.6</ele><time>2026-04-10T17:01:13.919Z</time></trkpt><trkpt lat="43.77317" lon="11.2419833"><ele>44.400000000000006</ele><time>2026-04-10T17:01:15.919Z</time></trkpt><trkpt lat="43.77313" lon="11.2421033"><ele>44.2</ele><time>2026-04-10T17:01:17.919Z</time></trkpt><trkpt lat="43.773085" lon="11.2422167"><ele>44.0</ele><time>2026-04-10T17:01:19.919Z</time></trkpt><trkpt lat="43.773045" lon="11.24235"><ele>45.166666666666664</ele><time>2026-04-10T17:01:21.919Z</time></trkpt><trkpt lat="43.7730083" lon="11.242465"><ele>46.33333333333333</ele><time>2026-04-10T17:01:23.919Z</time></trkpt><trkpt lat="43.772965" lon="11.2425667"><ele>47.5</ele><time>2026-04-10T17:01:25.919Z</time></trkpt><trkpt lat="43.7729233" lon="11.2426717"><ele>48.666666666666664</ele><time>2026-04-10T17:01:27.92Z</time></trkpt><trkpt lat="43.7728817" lon="11.24278"><ele>49.833333333333336</ele><time>2026-04-10T17:01:29.919Z</time></trkpt><trkpt lat="43.7728417" lon="11.2428883"><ele>51.0</ele><time>2026-04-10T17:01:31.92Z</time></trkpt><trkpt lat="43.7728017" lon="11.242995"><ele>51.0</ele><time>2026-04-10T17:01:33.919Z</time></trkpt><trkpt lat="43.772765" lon="11.2430983"><ele>51.0</ele><time>2026-04-10T17:01:35.919Z</time></trkpt><trkpt lat="43.7727267" lon="11.2432033"><ele>51.0</ele><time>2026-04-10T17:01:37.919Z</time></trkpt><trkpt lat="43.7726867" lon="11.2433067"><ele>51.0</ele><time>2026-04-10T17:01:39.919Z</time></trkpt><trkpt lat="43.7726517" lon="11.2434183"><ele>51.0</ele><time>2026-04-10T17:01:41.919Z</time></trkpt><trkpt lat="43.7726217" lon="11.2435367"><ele>51.0</ele><time>2026-04-10T17:01:43.92Z</time></trkpt><trkpt lat="43.7725767" lon="11.2436333"><ele>50.333333333333336</ele><time>2026-04-10T17:01:45.919Z</time></trkpt><trkpt lat="43.7725417" lon="11.2437283"><ele>49.666666666666664</ele><time>2026-04-10T17:01:47.919Z</time></trkpt><trkpt lat="43.7725133" lon="11.2438417"><ele>49.0</ele><time>2026-04-10T17:01:49.919Z</time></trkpt><trkpt lat="43.772475" lon="11.2439467"><ele>48.33333333333333</ele><time>2026-04-10T17:01:51.919Z</time></trkpt><trkpt lat="43.77243" lon="11.2440583"><ele>47.666666666666664</ele><time>2026-04-10T17:01:53.92Z</time></trkpt><trkpt lat="43.77238" lon="11.2441667"><ele>47.0</ele><time>2026-04-10T17:01:55.919Z</time></trkpt><trkpt lat="43.772335" lon="11.24427"><ele>48.400000000000006</ele><time>2026-04-10T17:01:57.919Z</time></trkpt><trkpt lat="43.7722817" lon="11.2443717"><ele>49.800000000000004</ele><time>2026-04-10T17:01:59.919Z</time></trkpt><trkpt lat="43.7722333" lon="11.24448"><ele>51.2</ele><time>2026-04-10T17:02:01.919Z</time></trkpt><trkpt lat="43.7721933" lon="11.2445933"><ele>52.6</ele><time>2026-04-10T17:02:03.919Z</time></trkpt><trkpt lat="43.7721467" lon="11.244695"><ele>54.0</ele><time>2026-04-10T17:02:05.919Z</time></trkpt><trkpt lat="43.7720967" lon="11.2448"><ele>54.0</ele><time>2026-04-10T17:02:07.919Z</time></trkpt><trkpt lat="43.7720567" lon="11.2449183"><ele>54.00000000000001</ele><time>2026-04-10T17:02:09.919Z</time></trkpt><trkpt lat="43.7720067" lon="11.245025"><ele>54.00000000000001</ele><time>2026-04-10T17:02:11.919Z</time></trkpt><trkpt lat="43.7719633" lon="11.24513"><ele>54.0</ele><time>2026-04-10T17:02:13.919Z</time></trkpt><trkpt lat="43.7719133" lon="11.245235"><ele>54.0</ele><time>2026-04-10T17:02:15.919Z</time></trkpt><trkpt lat="43.7718617" lon="11.2453517"><ele>54.166666666666664</ele><time>2026-04-10T17:02:17.92Z</time></trkpt><trkpt lat="43.77182" lon="11.2454517"><ele>54.33333333333333</ele><time>2026-04-10T17:02:19.919Z</time></trkpt><trkpt lat="43.771775" lon="11.2455517"><ele>54.5</ele><time>2026-04-10T17:02:21.919Z</time></trkpt><trkpt lat="43.77173" lon="11.2456533"><ele>54.666666666666664</ele><time>2026-04-10T17:02:23.919Z</time></trkpt><trkpt lat="43.7716833" lon="11.2457567"><ele>54.83333333333333</ele><time>2026-04-10T17:02:25.919Z</time></trkpt><trkpt lat="43.77164" lon="11.2458617"><ele>55.0</ele><time>2026-04-10T17:02:27.919Z</time></trkpt><trkpt lat="43.7715967" lon="11.2459633"><ele>55.33333333333333</ele><time>2026-04-10T17:02:29.919Z</time></trkpt><trkpt lat="43.7715583" lon="11.2460767"><ele>55.666666666666664</ele><time>2026-04-10T17:02:31.92Z</time></trkpt><trkpt lat="43.7715067" lon="11.2461817"><ele>56.0</ele><time>2026-04-10T17:02:33.919Z</time></trkpt><trkpt lat="43.77146" lon="11.2462833"><ele>56.33333333333333</ele><time>2026-04-10T17:02:35.919Z</time></trkpt><trkpt lat="43.771415" lon="11.246385"><ele>56.666666666666664</ele><time>2026-04-10T17:02:37.92Z</time></trkpt><trkpt lat="43.7713717" lon="11.2464833"><ele>57.0</ele><time>2026-04-10T17:02:39.92Z</time></trkpt><trkpt lat="43.7713317" lon="11.24659"><ele>57.0</ele><time>2026-04-10T17:02:41.919Z</time></trkpt><trkpt lat="43.7712833" lon="11.2466883"><ele>57.0</ele><time>2026-04-10T17:02:43.919Z</time></trkpt><trkpt lat="43.7712367" lon="11.24679"><ele>57.0</ele><time>2026-04-10T17:02:45.919Z</time></trkpt><trkpt lat="43.77119" lon="11.2468867"><ele>57.0</ele><time>2026-04-10T17:02:47.92Z</time></trkpt><trkpt lat="43.7711417" lon="11.2469933"><ele>57.0</ele><time>2026-04-10T17:02:49.919Z</time></trkpt><trkpt lat="43.7710967" lon="11.2471"><ele>57.0</ele><time>2026-04-10T17:02:51.92Z</time></trkpt><trkpt lat="43.7710517" lon="11.2472083"><ele>56.0</ele><time>2026-04-10T17:02:53.919Z</time></trkpt><trkpt lat="43.7710067" lon="11.2473133"><ele>55.0</ele><time>2026-04-10T17:02:55.92Z</time></trkpt><trkpt lat="43.770965" lon="11.2474117"><ele>54.0</ele><time>2026-04-10T17:02:57.919Z</time></trkpt><trkpt lat="43.7709167" lon="11.247505"><ele>53.0</ele><time>2026-04-10T17:02:59.92Z</time></trkpt><trkpt lat="43.7708917" lon="11.2476067"><ele>52.0</ele><time>2026-04-10T17:03:01.919Z</time></trkpt><trkpt lat="43.7708817" lon="11.247715"><ele>51.0</ele><time>2026-04-10T17:03:03.919Z</time></trkpt><trkpt lat="43.7708867" lon="11.24783"><ele>51.0</ele><time>2026-04-10T17:03:05.919Z</time></trkpt><trkpt lat="43.7709233" lon="11.24793"><ele>51.0</ele><time>2026-04-10T17:03:07.919Z</time></trkpt><trkpt lat="43.7709783" lon="11.2480267"><ele>51.0</ele><time>2026-04-10T17:03:09.919Z</time></trkpt><trkpt lat="43.7709933" lon="11.24815"><ele>51.0</ele><time>2026-04-10T17:03:11.919Z</time></trkpt><trkpt lat="43.7709767" lon="11.248265"><ele>51.0</ele><time>2026-04-10T17:03:13.919Z</time></trkpt><trkpt lat="43.7709817" lon="11.248385"><ele>51.0</ele><time>2026-04-10T17:03:15.919Z</time></trkpt><trkpt lat="43.7710033" lon="11.2485117"><ele>51.5</ele><time>2026-04-10T17:03:17.919Z</time></trkpt><trkpt lat="43.77102" lon="11.2486367"><ele>52.0</ele><time>2026-04-10T17:03:19.92Z</time></trkpt><trkpt lat="43.7710267" lon="11.2487483"><ele>52.5</ele><time>2026-04-10T17:03:21.919Z</time></trkpt><trkpt lat="43.77103" lon="11.2488383"><ele>53.0</ele><time>2026-04-10T17:03:23.919Z</time></trkpt><trkpt lat="43.7710583" lon="11.24897"><ele>53.5</ele><time>2026-04-10T17:03:26.919Z</time></trkpt><trkpt lat="43.7710883" lon="11.2490717"><ele>54.0</ele><time>2026-04-10T17:03:28.92Z</time></trkpt><trkpt lat="43.77112" lon="11.2491633"><ele>54.42857142857143</ele><time>2026-04-10T17:03:30.919Z</time></trkpt><trkpt lat="43.77114" lon="11.2492583"><ele>54.857142857142854</ele><time>2026-04-10T17:03:32.919Z</time></trkpt><trkpt lat="43.7711667" lon="11.2493683"><ele>55.285714285714285</ele><time>2026-04-10T17:03:34.919Z</time></trkpt><trkpt lat="43.7711767" lon="11.2494617"><ele>55.71428571428571</ele><time>2026-04-10T17:03:36.92Z</time></trkpt><trkpt lat="43.7712033" lon="11.249565"><ele>56.14285714285714</ele><time>2026-04-10T17:03:38.92Z</time></trkpt><trkpt lat="43.7712167" lon="11.2496567"><ele>56.57142857142857</ele><time>2026-04-10T17:03:40.919Z</time></trkpt><trkpt lat="43.7712217" lon="11.2497583"><ele>57.0</ele><time>2026-04-10T17:03:42.919Z</time></trkpt><trkpt lat="43.7712367" lon="11.2498683"><ele>57.0</ele><time>2026-04-10T17:03:44.919Z</time></trkpt><trkpt lat="43.7712583" lon="11.24996"><ele>56.99999999999999</ele><time>2026-04-10T17:03:46.919Z</time></trkpt><trkpt lat="43.7712633" lon="11.25008"><ele>57.0</ele><time>2026-04-10T17:03:48.919Z</time></trkpt><trkpt lat="43.7712583" lon="11.2501767"><ele>57.0</ele><time>2026-04-10T17:03:50.919Z</time></trkpt><trkpt lat="43.7712583" lon="11.25027"><ele>56.99999999999999</ele><time>2026-04-10T17:03:52.919Z</time></trkpt><trkpt lat="43.7712733" lon="11.2503733"><ele>57.0</ele><time>2026-04-10T17:03:54.919Z</time></trkpt><trkpt lat="43.771275" lon="11.2504767"><ele>57.0</ele><time>2026-04-10T17:03:56.919Z</time></trkpt><trkpt lat="43.7713017" lon="11.2505883"><ele>58.0</ele><time>2026-04-10T17:03:58.92Z</time></trkpt><trkpt lat="43.771325" lon="11.2506917"><ele>59.0</ele><time>2026-04-10T17:04:00.919Z</time></trkpt><trkpt lat="43.7713317" lon="11.2507833"><ele>60.0</ele><time>2026-04-10T17:04:02.919Z</time></trkpt><trkpt lat="43.7713433" lon="11.2508717"><ele>61.0</ele><time>2026-04-10T17:04:04.92Z</time></trkpt><trkpt lat="43.7713617" lon="11.2509883"><ele>62.0</ele><time>2026-04-10T17:04:07.919Z</time></trkpt><trkpt lat="43.77138" lon="11.2510967"><ele>63.0</ele><time>2026-04-10T17:04:09.919Z</time></trkpt><trkpt lat="43.7714233" lon="11.2512183"><ele>63.0</ele><time>2026-04-10T17:04:11.92Z</time></trkpt><trkpt lat="43.771435" lon="11.2513483"><ele>63.0</ele><time>2026-04-10T17:04:13.919Z</time></trkpt><trkpt lat="43.771445" lon="11.2514467"><ele>63.0</ele><time>2026-04-10T17:04:15.919Z</time></trkpt><trkpt lat="43.7714433" lon="11.2515567"><ele>63.0</ele><time>2026-04-10T17:04:17.919Z</time></trkpt><trkpt lat="43.7714367" lon="11.2516533"><ele>63.0</ele><time>2026-04-10T17:04:19.92Z</time></trkpt><trkpt lat="43.7714317" lon="11.251775"><ele>63.0</ele><time>2026-04-10T17:04:21.919Z</time></trkpt><trkpt lat="43.77144" lon="11.251885"><ele>63.166666666666664</ele><time>2026-04-10T17:04:23.919Z</time></trkpt><trkpt lat="43.7714517" lon="11.251985"><ele>63.33333333333333</ele><time>2026-04-10T17:04:25.919Z</time></trkpt><trkpt lat="43.7714767" lon="11.252095"><ele>63.5</ele><time>2026-04-10T17:04:27.919Z</time></trkpt><trkpt lat="43.77147" lon="11.2521867"><ele>63.666666666666664</ele><time>2026-04-10T17:04:29.919Z</time></trkpt><trkpt lat="43.7714683" lon="11.2523017"><ele>63.83333333333333</ele><time>2026-04-10T17:04:32.92Z</time></trkpt><trkpt lat="43.7714817" lon="11.2524183"><ele>64.0</ele><time>2026-04-10T17:04:37.919Z</time></trkpt><trkpt lat="43.7714867" lon="11.2525317"><ele>64.0</ele><time>2026-04-10T17:04:39.92Z</time></trkpt><trkpt lat="43.7714733" lon="11.252635"><ele>63.99999999999999</ele><time>2026-04-10T17:04:41.919Z</time></trkpt><trkpt lat="43.7714683" lon="11.25274"><ele>64.0</ele><time>2026-04-10T17:04:43.919Z</time></trkpt><trkpt lat="43.7714617" lon="11.2528267"><ele>64.0</ele><time>2026-04-10T17:04:45.92Z</time></trkpt><trkpt lat="43.77146" lon="11.25293"><ele>63.99999999999999</ele><time>2026-04-10T17:04:47.919Z</time></trkpt><trkpt lat="43.7714667" lon="11.2530467"><ele>64.0</ele><time>2026-04-10T17:04:49.919Z</time></trkpt><trkpt lat="43.7714833" lon="11.2531483"><ele>64.0</ele><time>2026-04-10T17:04:50.919Z</time></trkpt><trkpt lat="43.7714933" lon="11.2532467"><ele>64.5</ele><time>2026-04-10T17:04:52.919Z</time></trkpt><trkpt lat="43.7715167" lon="11.2533333"><ele>65.0</ele><time>2026-04-10T17:04:53.919Z</time></trkpt><trkpt lat="43.7715383" lon="11.2534683"><ele>65.5</ele><time>2026-04-10T17:04:55.919Z</time></trkpt><trkpt lat="43.77157" lon="11.2535967"><ele>66.0</ele><time>2026-04-10T17:04:57.919Z</time></trkpt><trkpt lat="43.7716283" lon="11.253685"><ele>66.5</ele><time>2026-04-10T17:04:59.919Z</time></trkpt><trkpt lat="43.77171" lon="11.2537333"><ele>67.0</ele><time>2026-04-10T17:05:02.919Z</time></trkpt><trkpt lat="43.77178" lon="11.2537067"><ele>66.5</ele><time>2026-04-10T17:05:05.919Z</time></trkpt><trkpt lat="43.7718617" lon="11.253675"><ele>66.0</ele><time>2026-04-10T17:05:08.92Z</time></trkpt><trkpt lat="43.7719517" lon="11.2536683"><ele>65.5</ele><time>2026-04-10T17:05:11.919Z</time></trkpt><trkpt lat="43.7720217" lon="11.253665"><ele>65.0</ele><time>2026-04-10T17:05:13.919Z</time></trkpt><trkpt lat="43.7721017" lon="11.2536483"><ele>64.5</ele><time>2026-04-10T17:05:15.919Z</time></trkpt><trkpt lat="43.77218" lon="11.2536517"><ele>64.0</ele><time>2026-04-10T17:05:17.919Z</time></trkpt><trkpt lat="43.7722483" lon="11.2536633"><ele>64.0</ele><time>2026-04-10T17:05:19.92Z</time></trkpt><trkpt lat="43.7723117" lon="11.2536617"><ele>63.99999999999999</ele><time>2026-04-10T17:05:21.919Z</time></trkpt><trkpt lat="43.7723767" lon="11.2536683"><ele>64.0</ele><time>2026-04-10T17:05:23.919Z</time></trkpt><trkpt lat="43.7724517" lon="11.253695"><ele>64.0</ele><time>2026-04-10T17:05:25.919Z</time></trkpt><trkpt lat="43.7725133" lon="11.2537217"><ele>63.99999999999999</ele><time>2026-04-10T17:05:27.919Z</time></trkpt><trkpt lat="43.7726017" lon="11.2537167"><ele>64.0</ele><time>2026-04-10T17:05:29.919Z</time></trkpt><trkpt lat="43.7726617" lon="11.2537583"><ele>64.0</ele><time>2026-04-10T17:05:31.919Z</time></trkpt><trkpt lat="43.7726967" lon="11.253845"><ele>63.57142857142857</ele><time>2026-04-10T17:05:33.919Z</time></trkpt><trkpt lat="43.7727217" lon="11.2539367"><ele>63.14285714285714</ele><time>2026-04-10T17:05:35.919Z</time></trkpt><trkpt lat="43.7727317" lon="11.25403"><ele>62.71428571428571</ele><time>2026-04-10T17:05:37.919Z</time></trkpt><trkpt lat="43.7727333" lon="11.2541217"><ele>62.28571428571428</ele><time>2026-04-10T17:05:39.919Z</time></trkpt><trkpt lat="43.7727383" lon="11.2542167"><ele>61.857142857142854</ele><time>2026-04-10T17:05:41.919Z</time></trkpt><trkpt lat="43.7727283" lon="11.254325"><ele>61.428571428571416</ele><time>2026-04-10T17:05:43.919Z</time></trkpt><trkpt lat="43.7727267" lon="11.2544233"><ele>60.99999999999999</ele><time>2026-04-10T17:05:45.919Z</time></trkpt><trkpt lat="43.7727467" lon="11.2545133"><ele>60.33333333333333</ele><time>2026-04-10T17:05:47.919Z</time></trkpt><trkpt lat="43.7728117" lon="11.2546067"><ele>59.666666666666664</ele><time>2026-04-10T17:05:50.919Z</time></trkpt><trkpt lat="43.772875" lon="11.2546533"><ele>59.0</ele><time>2026-04-10T17:05:53.919Z</time></trkpt><trkpt lat="43.772935" lon="11.2547017"><ele>58.33333333333333</ele><time>2026-04-10T17:05:56.919Z</time></trkpt><trkpt lat="43.773035" lon="11.25478"><ele>57.666666666666664</ele><time>2026-04-10T17:06:01.919Z</time></trkpt><trkpt lat="43.773115" lon="11.2548033"><ele>57.0</ele><time>2026-04-10T17:06:03.919Z</time></trkpt><trkpt lat="43.7731817" lon="11.2548467"><ele>56.166666666666664</ele><time>2026-04-10T17:06:05.92Z</time></trkpt><trkpt lat="43.7732383" lon="11.2549083"><ele>55.33333333333333</ele><time>2026-04-10T17:06:08.919Z</time></trkpt><trkpt lat="43.7732883" lon="11.25501"><ele>54.5</ele><time>2026-04-10T17:06:12.92Z</time></trkpt><trkpt lat="43.77333" lon="11.2551017"><ele>53.666666666666664</ele><time>2026-04-10T17:06:15.919Z</time></trkpt><trkpt lat="43.77336" lon="11.2551817"><ele>52.83333333333333</ele><time>2026-04-10T17:06:18.92Z</time></trkpt><trkpt lat="43.7733983" lon="11.2552783"><ele>52.0</ele><time>2026-04-10T17:06:22.919Z</time></trkpt><trkpt lat="43.773395" lon="11.25537"><ele>51.99999999999999</ele><time>2026-04-10T17:06:25.92Z</time></trkpt><trkpt lat="43.7733617" lon="11.2554617"><ele>52.0</ele><time>2026-04-10T17:06:28.919Z</time></trkpt><trkpt lat="43.773345" lon="11.2555783"><ele>52.0</ele><time>2026-04-10T17:06:31.919Z</time></trkpt><trkpt lat="43.7733683" lon="11.2556933"><ele>52.0</ele><time>2026-04-10T17:06:34.919Z</time></trkpt><trkpt lat="43.7733833" lon="11.255795"><ele>51.99999999999999</ele><time>2026-04-10T17:06:36.92Z</time></trkpt><trkpt lat="43.7733817" lon="11.2559217"><ele>52.0</ele><time>2026-04-10T17:06:39.919Z</time></trkpt><trkpt lat="43.7733833" lon="11.2560417"><ele>52.14285714285714</ele><time>2026-04-10T17:06:41.92Z</time></trkpt><trkpt lat="43.7733867" lon="11.2561383"><ele>52.28571428571429</ele><time>2026-04-10T17:06:43.919Z</time></trkpt><trkpt lat="43.7733817" lon="11.2562383"><ele>52.42857142857143</ele><time>2026-04-10T17:06:45.919Z</time></trkpt><trkpt lat="43.7734033" lon="11.2563217"><ele>52.57142857142857</ele><time>2026-04-10T17:06:47.919Z</time></trkpt><trkpt lat="43.7734233" lon="11.2564233"><ele>52.71428571428571</ele><time>2026-04-10T17:06:50.92Z</time></trkpt><trkpt lat="43.7734433" lon="11.2565333"><ele>52.85714285714286</ele><time>2026-04-10T17:06:53.919Z</time></trkpt><trkpt lat="43.7734583" lon="11.25663"><ele>53.0</ele><time>2026-04-10T17:06:56.92Z</time></trkpt><trkpt lat="43.7734817" lon="11.256725"><ele>54.16666666666667</ele><time>2026-04-10T17:06:59.919Z</time></trkpt><trkpt lat="43.77353" lon="11.2568267"><ele>55.333333333333336</ele><time>2026-04-10T17:07:02.92Z</time></trkpt><trkpt lat="43.77357" lon="11.2569367"><ele>56.5</ele><time>2026-04-10T17:07:05.92Z</time></trkpt><trkpt lat="43.773565" lon="11.2570567"><ele>57.66666666666667</ele><time>2026-04-10T17:07:08.919Z</time></trkpt><trkpt lat="43.7735467" lon="11.25715"><ele>58.833333333333336</ele><time>2026-04-10T17:07:11.919Z</time></trkpt><trkpt lat="43.773565" lon="11.2572517"><ele>60.0</ele><time>2026-04-10T17:07:14.919Z</time></trkpt><trkpt lat="43.7736217" lon="11.25734"><ele>60.333333333333336</ele><time>2026-04-10T17:07:17.92Z</time></trkpt><trkpt lat="43.773675" lon="11.2574067"><ele>60.66666666666667</ele><time>2026-04-10T17:07:19.919Z</time></trkpt><trkpt lat="43.77373" lon="11.2574783"><ele>61.0</ele><time>2026-04-10T17:07:21.919Z</time></trkpt><trkpt lat="43.77381" lon="11.2575183"><ele>61.333333333333336</ele><time>2026-04-10T17:07:23.919Z</time></trkpt><trkpt lat="43.77389" lon="11.25756"><ele>61.66666666666667</ele><time>2026-04-10T17:07:25.919Z</time></trkpt><trkpt lat="43.773965" lon="11.2576117"><ele>62.0</ele><time>2026-04-10T17:07:27.92Z</time></trkpt><trkpt lat="43.7740233" lon="11.2576483"><ele>62.0</ele><time>2026-04-10T17:07:28.919Z</time></trkpt><trkpt lat="43.7740833" lon="11.2577083"><ele>62.00000000000001</ele><time>2026-04-10T17:07:30.919Z</time></trkpt><trkpt lat="43.7741017" lon="11.2578367"><ele>62.0</ele><time>2026-04-10T17:07:33.92Z</time></trkpt><trkpt lat="43.7741417" lon="11.2579133"><ele>62.0</ele><time>2026-04-10T17:07:37.919Z</time></trkpt><trkpt lat="43.7741933" lon="11.25797"><ele>62.00000000000001</ele><time>2026-04-10T17:07:40.92Z</time></trkpt><trkpt lat="43.774245" lon="11.2580283"><ele>62.0</ele><time>2026-04-10T17:07:42.919Z</time></trkpt><trkpt lat="43.7743033" lon="11.2580867"><ele>62.0</ele><time>2026-04-10T17:07:44.92Z</time></trkpt><trkpt lat="43.7743533" lon="11.25815"><ele>61.714285714285715</ele><time>2026-04-10T17:07:46.919Z</time></trkpt><trkpt lat="43.774405" lon="11.258215"><ele>61.42857142857143</ele><time>2026-04-10T17:07:48.919Z</time></trkpt><trkpt lat="43.7744583" lon="11.2582933"><ele>61.142857142857146</ele><time>2026-04-10T17:07:50.919Z</time></trkpt><trkpt lat="43.7745083" lon="11.2583617"><ele>60.85714285714286</ele><time>2026-04-10T17:07:52.919Z</time></trkpt><trkpt lat="43.7745567" lon="11.2584383"><ele>60.57142857142857</ele><time>2026-04-10T17:07:54.92Z</time></trkpt><trkpt lat="43.7745983" lon="11.2585067"><ele>60.28571428571429</ele><time>2026-04-10T17:07:56.919Z</time></trkpt><trkpt lat="43.7746467" lon="11.2585683"><ele>60.0</ele><time>2026-04-10T17:07:58.92Z</time></trkpt><trkpt lat="43.7747" lon="11.25862"><ele>60.0</ele><time>2026-04-10T17:08:00.919Z</time></trkpt><trkpt lat="43.7747483" lon="11.2586767"><ele>60.0</ele><time>2026-04-10T17:08:02.919Z</time></trkpt><trkpt lat="43.7748083" lon="11.2587367"><ele>60.0</ele><time>2026-04-10T17:08:04.919Z</time></trkpt><trkpt lat="43.774865" lon="11.258795"><ele>60.0</ele><time>2026-04-10T17:08:06.919Z</time></trkpt><trkpt lat="43.77493" lon="11.25886"><ele>60.0</ele><time>2026-04-10T17:08:08.919Z</time></trkpt><trkpt lat="43.77498" lon="11.2589217"><ele>60.0</ele><time>2026-04-10T17:08:10.919Z</time></trkpt><trkpt lat="43.7750317" lon="11.2589783"><ele>60.0</ele><time>2026-04-10T17:08:12.919Z</time></trkpt><trkpt lat="43.77508" lon="11.25904"><ele>60.0</ele><time>2026-04-10T17:08:14.92Z</time></trkpt><trkpt lat="43.7751333" lon="11.2590967"><ele>60.0</ele><time>2026-04-10T17:08:16.919Z</time></trkpt><trkpt lat="43.7751883" lon="11.25916"><ele>60.0</ele><time>2026-04-10T17:08:18.92Z</time></trkpt><trkpt lat="43.775245" lon="11.25924"><ele>60.0</ele><time>2026-04-10T17:08:20.919Z</time></trkpt><trkpt lat="43.7753033" lon="11.25932"><ele>60.0</ele><time>2026-04-10T17:08:22.919Z</time></trkpt><trkpt lat="43.7753633" lon="11.2593933"><ele>60.0</ele><time>2026-04-10T17:08:24.919Z</time></trkpt><trkpt lat="43.77542" lon="11.2594667"><ele>60.0</ele><time>2026-04-10T17:08:26.92Z</time></trkpt><trkpt lat="43.7754783" lon="11.2595367"><ele>60.0</ele><time>2026-04-10T17:08:28.919Z</time></trkpt><trkpt lat="43.775525" lon="11.259605"><ele>60.0</ele><time>2026-04-10T17:08:30.92Z</time></trkpt><trkpt lat="43.7755767" lon="11.25967"><ele>60.0</ele><time>2026-04-10T17:08:32.919Z</time></trkpt><trkpt lat="43.775625" lon="11.2597583"><ele>60.0</ele><time>2026-04-10T17:08:35.919Z</time></trkpt><trkpt lat="43.7756283" lon="11.2598517"><ele>60.0</ele><time>2026-04-10T17:08:40.919Z</time></trkpt><trkpt lat="43.7755867" lon="11.2599183"><ele>60.0</ele><time>2026-04-10T17:08:42.919Z</time></trkpt><trkpt lat="43.7755283" lon="11.2599817"><ele>60.142857142857146</ele><time>2026-04-10T17:08:44.919Z</time></trkpt><trkpt lat="43.7754867" lon="11.2600533"><ele>60.28571428571428</ele><time>2026-04-10T17:08:46.919Z</time></trkpt><trkpt lat="43.7754533" lon="11.2601333"><ele>60.42857142857142</ele><time>2026-04-10T17:08:48.919Z</time></trkpt><trkpt lat="43.7754317" lon="11.26022"><ele>60.57142857142857</ele><time>2026-04-10T17:08:50.919Z</time></trkpt><trkpt lat="43.7753917" lon="11.2602967"><ele>60.71428571428571</ele><time>2026-04-10T17:08:52.919Z</time></trkpt><trkpt lat="43.7753467" lon="11.2603783"><ele>60.85714285714285</ele><time>2026-04-10T17:08:54.919Z</time></trkpt><trkpt lat="43.7752967" lon="11.2604617"><ele>60.99999999999999</ele><time>2026-04-10T17:08:56.92Z</time></trkpt><trkpt lat="43.7752683" lon="11.2605817"><ele>60.33333333333333</ele><time>2026-04-10T17:08:58.919Z</time></trkpt><trkpt lat="43.775235" lon="11.2606917"><ele>59.666666666666664</ele><time>2026-04-10T17:09:00.919Z</time></trkpt><trkpt lat="43.7752033" lon="11.2607983"><ele>59.0</ele><time>2026-04-10T17:09:02.919Z</time></trkpt><trkpt lat="43.7751683" lon="11.2609233"><ele>58.33333333333333</ele><time>2026-04-10T17:09:04.919Z</time></trkpt><trkpt lat="43.7751333" lon="11.2610267"><ele>57.666666666666664</ele><time>2026-04-10T17:09:06.92Z</time></trkpt><trkpt lat="43.7750967" lon="11.2611317"><ele>57.0</ele><time>2026-04-10T17:09:08.919Z</time></trkpt><trkpt lat="43.7750583" lon="11.2612333"><ele>56.400000000000006</ele><time>2026-04-10T17:09:10.919Z</time></trkpt><trkpt lat="43.774995" lon="11.2613367"><ele>55.800000000000004</ele><time>2026-04-10T17:09:12.919Z</time></trkpt><trkpt lat="43.7749383" lon="11.2614483"><ele>55.2</ele><time>2026-04-10T17:09:14.919Z</time></trkpt><trkpt lat="43.7748833" lon="11.261565"><ele>54.6</ele><time>2026-04-10T17:09:16.919Z</time></trkpt><trkpt lat="43.7748317" lon="11.2616617"><ele>54.0</ele><time>2026-04-10T17:09:18.919Z</time></trkpt><trkpt lat="43.77478" lon="11.261745"><ele>54.0</ele><time>2026-04-10T17:09:20.919Z</time></trkpt><trkpt lat="43.774715" lon="11.2618167"><ele>54.0</ele><time>2026-04-10T17:09:22.92Z</time></trkpt><trkpt lat="43.7746667" lon="11.2619017"><ele>54.0</ele><time>2026-04-10T17:09:24.919Z</time></trkpt><trkpt lat="43.7746233" lon="11.261975"><ele>54.0</ele><time>2026-04-10T17:09:26.92Z</time></trkpt><trkpt lat="43.77458" lon="11.2620617"><ele>54.0</ele><time>2026-04-10T17:09:28.919Z</time></trkpt><trkpt lat="43.7745483" lon="11.2621517"><ele>54.0</ele><time>2026-04-10T17:09:30.92Z</time></trkpt><trkpt lat="43.774495" lon="11.2622583"><ele>54.0</ele><time>2026-04-10T17:09:33.919Z</time></trkpt><trkpt lat="43.7744967" lon="11.2623533"><ele>56.0</ele><time>2026-04-10T17:09:35.919Z</time></trkpt><trkpt lat="43.7745467" lon="11.2624417"><ele>56.0</ele><time>2026-04-10T17:09:38.919Z</time></trkpt><trkpt lat="43.7745983" lon="11.2625"><ele>56.0</ele><time>2026-04-10T17:09:41.919Z</time></trkpt></trkseg></trk></gpx>